<?xml version="1.0" encoding="UTF-8"?><gpx version="1.1" xmlns:xsd="http://www.w3.org/2001/XMLSchema" xmlns:xsi="http://www.w3.org/2001/XMLSchema-instance" creator="Magellan, Inc. All Rights Reserved. http://www.magellangps.com" xsi:schemaLocation="http://www.topografix.com/GPX/1/1 http://www.topografix.com/GPX/1/1/gpx.xsd http://www.magellangps.com/mgnext/0/2 http://www.magellangps.com/mgnext/0/2/mgn.xsd http://www.groundspeak.com/cache/1/0 http://www.groundspeak.com/cache/1/0/cache.xsd" xmlns="http://www.topografix.com/GPX/1/1">
<trk>
    <name>OK Mine by The NOTARUBICON</name>
    <desc></desc>
    <extensions>
      <mgn:extensions xmlns:mgn="http://www.magellangps.com/mgnext/0/2">
        <mgn:uuid>294634a0-b6fd-4b5b-be0e-cfb1e614a7e3</mgn:uuid>
        <mgn:proplist>
          <mgn:prop key="Vehicle">9929</mgn:prop>
          <mgn:prop key="VehicleType">,OHV</mgn:prop>
          <mgn:prop key="WD">Must</mgn:prop>
          <mgn:prop key="LO">Must</mgn:prop>
          <mgn:prop key="DIRT"></mgn:prop>
          <mgn:prop key="T_MUD"></mgn:prop>
          <mgn:prop key="T_SAND"></mgn:prop>
          <mgn:prop key="T_SNOW"></mgn:prop>
          <mgn:prop key="T_ICE"></mgn:prop>
          <mgn:prop key="T_WATER"></mgn:prop>
          <mgn:prop key="T_ROCK"></mgn:prop>
          <mgn:prop key="PITCH"></mgn:prop>
          <mgn:prop key="ROLL"></mgn:prop>
          <mgn:prop key="MAGELLAN_OFFROAD_KEY">0</mgn:prop>
          <mgn:prop key="Author">NotARubicon</mgn:prop>
          <mgn:prop key="InstagramUpdate">True</mgn:prop>
          <mgn:prop key="MaxElevation">761</mgn:prop>
          <mgn:prop key="MinElevation">430</mgn:prop>
          <mgn:prop key="ElevationChange">312.69922</mgn:prop>
          <mgn:prop key="RecordedTime">7009</mgn:prop>
          <mgn:prop key="Length">10523.521</mgn:prop>
          <mgn:prop key="Type">Trail</mgn:prop>
          <mgn:prop key="Type2">Trail</mgn:prop>
        </mgn:proplist>
      </mgn:extensions>
    </extensions>

    <trkseg>
      <trkpt lat="33.976611" lon="-115.681154">
        <ele>448.699219</ele>
        <time>2021-04-03T18:43:39.000Z</time>
      </trkpt>
      <trkpt lat="33.976536" lon="-115.681089">
        <ele>446.796875</ele>
        <time>2021-04-03T18:44:08.000Z</time>
      </trkpt>
      <trkpt lat="33.976514" lon="-115.68106">
        <ele>446.699219</ele>
        <time>2021-04-03T18:44:10.000Z</time>
      </trkpt>
      <trkpt lat="33.975516" lon="-115.67975">
        <ele>444.097656</ele>
        <time>2021-04-03T18:44:39.000Z</time>
      </trkpt>
      <trkpt lat="33.975395" lon="-115.679549">
        <ele>443.796875</ele>
        <time>2021-04-03T18:44:42.000Z</time>
      </trkpt>
      <trkpt lat="33.975318" lon="-115.679398">
        <ele>443.500000</ele>
        <time>2021-04-03T18:44:44.000Z</time>
      </trkpt>
      <trkpt lat="33.97525" lon="-115.679237">
        <ele>443.398438</ele>
        <time>2021-04-03T18:44:46.000Z</time>
      </trkpt>
      <trkpt lat="33.975037" lon="-115.678731">
        <ele>442.699219</ele>
        <time>2021-04-03T18:44:52.000Z</time>
      </trkpt>
      <trkpt lat="33.974996" lon="-115.678654">
        <ele>442.699219</ele>
        <time>2021-04-03T18:44:53.000Z</time>
      </trkpt>
      <trkpt lat="33.974906" lon="-115.678515">
        <ele>442.597656</ele>
        <time>2021-04-03T18:44:55.000Z</time>
      </trkpt>
      <trkpt lat="33.974808" lon="-115.678393">
        <ele>442.398438</ele>
        <time>2021-04-03T18:44:57.000Z</time>
      </trkpt>
      <trkpt lat="33.974613" lon="-115.678175">
        <ele>441.199219</ele>
        <time>2021-04-03T18:45:01.000Z</time>
      </trkpt>
      <trkpt lat="33.97441" lon="-115.677994">
        <ele>440.097656</ele>
        <time>2021-04-03T18:45:05.000Z</time>
      </trkpt>
      <trkpt lat="33.974252" lon="-115.677872">
        <ele>439.398438</ele>
        <time>2021-04-03T18:45:08.000Z</time>
      </trkpt>
      <trkpt lat="33.974138" lon="-115.677799">
        <ele>439.199219</ele>
        <time>2021-04-03T18:45:10.000Z</time>
      </trkpt>
      <trkpt lat="33.97408" lon="-115.67777">
        <ele>439.296875</ele>
        <time>2021-04-03T18:45:11.000Z</time>
      </trkpt>
      <trkpt lat="33.974021" lon="-115.677747">
        <ele>439.199219</ele>
        <time>2021-04-03T18:45:12.000Z</time>
      </trkpt>
      <trkpt lat="33.973966" lon="-115.677737">
        <ele>439.097656</ele>
        <time>2021-04-03T18:45:13.000Z</time>
      </trkpt>
      <trkpt lat="33.973917" lon="-115.677735">
        <ele>439.000000</ele>
        <time>2021-04-03T18:45:14.000Z</time>
      </trkpt>
      <trkpt lat="33.973873" lon="-115.677743">
        <ele>439.199219</ele>
        <time>2021-04-03T18:45:16.000Z</time>
      </trkpt>
      <trkpt lat="33.973801" lon="-115.67777">
        <ele>439.398438</ele>
        <time>2021-04-03T18:45:17.000Z</time>
      </trkpt>
      <trkpt lat="33.973544" lon="-115.677887">
        <ele>438.296875</ele>
        <time>2021-04-03T18:45:24.000Z</time>
      </trkpt>
      <trkpt lat="33.973512" lon="-115.677894">
        <ele>438.398438</ele>
        <time>2021-04-03T18:45:26.000Z</time>
      </trkpt>
      <trkpt lat="33.973446" lon="-115.677893">
        <ele>438.500000</ele>
        <time>2021-04-03T18:45:27.000Z</time>
      </trkpt>
      <trkpt lat="33.973407" lon="-115.677885">
        <ele>438.796875</ele>
        <time>2021-04-03T18:45:29.000Z</time>
      </trkpt>
      <trkpt lat="33.973328" lon="-115.677865">
        <ele>438.796875</ele>
        <time>2021-04-03T18:45:30.000Z</time>
      </trkpt>
      <trkpt lat="33.973289" lon="-115.677845">
        <ele>438.796875</ele>
        <time>2021-04-03T18:45:32.000Z</time>
      </trkpt>
      <trkpt lat="33.973215" lon="-115.677789">
        <ele>438.597656</ele>
        <time>2021-04-03T18:45:33.000Z</time>
      </trkpt>
      <trkpt lat="33.973178" lon="-115.677753">
        <ele>438.398438</ele>
        <time>2021-04-03T18:45:34.000Z</time>
      </trkpt>
      <trkpt lat="33.973142" lon="-115.677712">
        <ele>438.398438</ele>
        <time>2021-04-03T18:45:35.000Z</time>
      </trkpt>
      <trkpt lat="33.973106" lon="-115.677665">
        <ele>438.296875</ele>
        <time>2021-04-03T18:45:36.000Z</time>
      </trkpt>
      <trkpt lat="33.973072" lon="-115.677614">
        <ele>438.296875</ele>
        <time>2021-04-03T18:45:37.000Z</time>
      </trkpt>
      <trkpt lat="33.973041" lon="-115.677557">
        <ele>438.296875</ele>
        <time>2021-04-03T18:45:38.000Z</time>
      </trkpt>
      <trkpt lat="33.973012" lon="-115.677496">
        <ele>438.296875</ele>
        <time>2021-04-03T18:45:39.000Z</time>
      </trkpt>
      <trkpt lat="33.972985" lon="-115.677432">
        <ele>438.199219</ele>
        <time>2021-04-03T18:45:40.000Z</time>
      </trkpt>
      <trkpt lat="33.972963" lon="-115.677366">
        <ele>438.398438</ele>
        <time>2021-04-03T18:45:41.000Z</time>
      </trkpt>
      <trkpt lat="33.97295" lon="-115.677297">
        <ele>438.296875</ele>
        <time>2021-04-03T18:45:42.000Z</time>
      </trkpt>
      <trkpt lat="33.972944" lon="-115.677229">
        <ele>438.398438</ele>
        <time>2021-04-03T18:45:43.000Z</time>
      </trkpt>
      <trkpt lat="33.972941" lon="-115.677161">
        <ele>438.296875</ele>
        <time>2021-04-03T18:45:44.000Z</time>
      </trkpt>
      <trkpt lat="33.972948" lon="-115.677091">
        <ele>438.199219</ele>
        <time>2021-04-03T18:45:45.000Z</time>
      </trkpt>
      <trkpt lat="33.972963" lon="-115.67702">
        <ele>438.199219</ele>
        <time>2021-04-03T18:45:46.000Z</time>
      </trkpt>
      <trkpt lat="33.972984" lon="-115.676954">
        <ele>438.199219</ele>
        <time>2021-04-03T18:45:47.000Z</time>
      </trkpt>
      <trkpt lat="33.973147" lon="-115.676472">
        <ele>437.796875</ele>
        <time>2021-04-03T18:45:55.000Z</time>
      </trkpt>
      <trkpt lat="33.973167" lon="-115.676424">
        <ele>437.500000</ele>
        <time>2021-04-03T18:45:57.000Z</time>
      </trkpt>
      <trkpt lat="33.973557" lon="-115.675388">
        <ele>437.199219</ele>
        <time>2021-04-03T18:46:13.000Z</time>
      </trkpt>
      <trkpt lat="33.973573" lon="-115.675316">
        <ele>437.000000</ele>
        <time>2021-04-03T18:46:14.000Z</time>
      </trkpt>
      <trkpt lat="33.973579" lon="-115.675242">
        <ele>436.898438</ele>
        <time>2021-04-03T18:46:15.000Z</time>
      </trkpt>
      <trkpt lat="33.973585" lon="-115.675166">
        <ele>436.898438</ele>
        <time>2021-04-03T18:46:16.000Z</time>
      </trkpt>
      <trkpt lat="33.973599" lon="-115.675099">
        <ele>436.796875</ele>
        <time>2021-04-03T18:46:17.000Z</time>
      </trkpt>
      <trkpt lat="33.973621" lon="-115.675046">
        <ele>436.597656</ele>
        <time>2021-04-03T18:46:18.000Z</time>
      </trkpt>
      <trkpt lat="33.973649" lon="-115.675006">
        <ele>436.199219</ele>
        <time>2021-04-03T18:46:20.000Z</time>
      </trkpt>
      <trkpt lat="33.973713" lon="-115.674929">
        <ele>435.699219</ele>
        <time>2021-04-03T18:46:21.000Z</time>
      </trkpt>
      <trkpt lat="33.973739" lon="-115.674879">
        <ele>435.296875</ele>
        <time>2021-04-03T18:46:22.000Z</time>
      </trkpt>
      <trkpt lat="33.973761" lon="-115.674819">
        <ele>435.199219</ele>
        <time>2021-04-03T18:46:23.000Z</time>
      </trkpt>
      <trkpt lat="33.97447" lon="-115.672811">
        <ele>432.296875</ele>
        <time>2021-04-03T18:46:56.000Z</time>
      </trkpt>
      <trkpt lat="33.974789" lon="-115.671863">
        <ele>430.597656</ele>
        <time>2021-04-03T18:47:11.000Z</time>
      </trkpt>
      <trkpt lat="33.974881" lon="-115.671667">
        <ele>430.296875</ele>
        <time>2021-04-03T18:47:14.000Z</time>
      </trkpt>
      <trkpt lat="33.974909" lon="-115.671618">
        <ele>430.296875</ele>
        <time>2021-04-03T18:47:15.000Z</time>
      </trkpt>
      <trkpt lat="33.974942" lon="-115.671583">
        <ele>430.699219</ele>
        <time>2021-04-03T18:47:17.000Z</time>
      </trkpt>
      <trkpt lat="33.975029" lon="-115.671542">
        <ele>430.699219</ele>
        <time>2021-04-03T18:47:18.000Z</time>
      </trkpt>
      <trkpt lat="33.975083" lon="-115.671527">
        <ele>430.699219</ele>
        <time>2021-04-03T18:47:19.000Z</time>
      </trkpt>
      <trkpt lat="33.979741" lon="-115.670315">
        <ele>441.398438</ele>
        <time>2021-04-03T18:48:30.000Z</time>
      </trkpt>
      <trkpt lat="33.980174" lon="-115.670215">
        <ele>440.597656</ele>
        <time>2021-04-03T18:48:44.000Z</time>
      </trkpt>
      <trkpt lat="33.98132" lon="-115.670011">
        <ele>445.398438</ele>
        <time>2021-04-03T18:49:03.000Z</time>
      </trkpt>
      <trkpt lat="33.982098" lon="-115.669951">
        <ele>446.097656</ele>
        <time>2021-04-03T18:49:16.000Z</time>
      </trkpt>
      <trkpt lat="33.983558" lon="-115.669985">
        <ele>449.699219</ele>
        <time>2021-04-03T18:49:49.000Z</time>
      </trkpt>
      <trkpt lat="33.983792" lon="-115.67001">
        <ele>450.500000</ele>
        <time>2021-04-03T18:49:54.000Z</time>
      </trkpt>
      <trkpt lat="33.984456" lon="-115.670047">
        <ele>451.199219</ele>
        <time>2021-04-03T18:50:06.000Z</time>
      </trkpt>
      <trkpt lat="33.985221" lon="-115.670209">
        <ele>452.296875</ele>
        <time>2021-04-03T18:50:22.000Z</time>
      </trkpt>
      <trkpt lat="33.986426" lon="-115.670482">
        <ele>456.199219</ele>
        <time>2021-04-03T18:50:46.000Z</time>
      </trkpt>
      <trkpt lat="33.992374" lon="-115.671479">
        <ele>471.699219</ele>
        <time>2021-04-03T18:52:21.000Z</time>
      </trkpt>
      <trkpt lat="33.994798" lon="-115.672074">
        <ele>479.296875</ele>
        <time>2021-04-03T18:53:13.000Z</time>
      </trkpt>
      <trkpt lat="33.994825" lon="-115.672077">
        <ele>479.796875</ele>
        <time>2021-04-03T18:53:16.000Z</time>
      </trkpt>
      <trkpt lat="33.99491" lon="-115.672085">
        <ele>480.000000</ele>
        <time>2021-04-03T18:53:17.000Z</time>
      </trkpt>
      <trkpt lat="33.994942" lon="-115.672092">
        <ele>480.699219</ele>
        <time>2021-04-03T18:53:19.000Z</time>
      </trkpt>
      <trkpt lat="33.995004" lon="-115.672114">
        <ele>481.000000</ele>
        <time>2021-04-03T18:53:20.000Z</time>
      </trkpt>
      <trkpt lat="33.995098" lon="-115.672157">
        <ele>481.398438</ele>
        <time>2021-04-03T18:53:23.000Z</time>
      </trkpt>
      <trkpt lat="33.995131" lon="-115.672168">
        <ele>481.699219</ele>
        <time>2021-04-03T18:53:25.000Z</time>
      </trkpt>
      <trkpt lat="33.995202" lon="-115.672177">
        <ele>481.699219</ele>
        <time>2021-04-03T18:53:26.000Z</time>
      </trkpt>
      <trkpt lat="33.995369" lon="-115.672193">
        <ele>482.296875</ele>
        <time>2021-04-03T18:53:31.000Z</time>
      </trkpt>
      <trkpt lat="33.995399" lon="-115.6722">
        <ele>482.597656</ele>
        <time>2021-04-03T18:53:33.000Z</time>
      </trkpt>
      <trkpt lat="33.995554" lon="-115.672236">
        <ele>483.296875</ele>
        <time>2021-04-03T18:53:37.000Z</time>
      </trkpt>
      <trkpt lat="33.995901" lon="-115.672265">
        <ele>484.597656</ele>
        <time>2021-04-03T18:53:46.000Z</time>
      </trkpt>
      <trkpt lat="33.996215" lon="-115.672266">
        <ele>485.796875</ele>
        <time>2021-04-03T18:53:53.000Z</time>
      </trkpt>
      <trkpt lat="33.996307" lon="-115.672286">
        <ele>486.097656</ele>
        <time>2021-04-03T18:53:55.000Z</time>
      </trkpt>
      <trkpt lat="33.996539" lon="-115.672338">
        <ele>486.296875</ele>
        <time>2021-04-03T18:54:01.000Z</time>
      </trkpt>
      <trkpt lat="33.996737" lon="-115.672363">
        <ele>486.500000</ele>
        <time>2021-04-03T18:54:11.000Z</time>
      </trkpt>
      <trkpt lat="33.996737" lon="-115.672362">
        <ele>487.500000</ele>
        <time>2021-04-03T18:54:37.000Z</time>
      </trkpt>
      <trkpt lat="33.996829" lon="-115.672374">
        <ele>487.699219</ele>
        <time>2021-04-03T18:54:38.000Z</time>
      </trkpt>
      <trkpt lat="33.996946" lon="-115.672398">
        <ele>488.500000</ele>
        <time>2021-04-03T18:54:42.000Z</time>
      </trkpt>
      <trkpt lat="33.99716" lon="-115.672455">
        <ele>489.898438</ele>
        <time>2021-04-03T18:54:50.000Z</time>
      </trkpt>
      <trkpt lat="33.997727" lon="-115.672511">
        <ele>491.296875</ele>
        <time>2021-04-03T18:55:10.000Z</time>
      </trkpt>
      <trkpt lat="34.000271" lon="-115.672829">
        <ele>498.000000</ele>
        <time>2021-04-03T18:56:09.000Z</time>
      </trkpt>
      <trkpt lat="34.000303" lon="-115.67283">
        <ele>497.398438</ele>
        <time>2021-04-03T18:56:12.000Z</time>
      </trkpt>
      <trkpt lat="34.000394" lon="-115.672822">
        <ele>497.398438</ele>
        <time>2021-04-03T18:56:14.000Z</time>
      </trkpt>
      <trkpt lat="34.000416" lon="-115.672818">
        <ele>497.500000</ele>
        <time>2021-04-03T18:56:17.000Z</time>
      </trkpt>
      <trkpt lat="34.0005" lon="-115.672813">
        <ele>497.500000</ele>
        <time>2021-04-03T18:56:18.000Z</time>
      </trkpt>
      <trkpt lat="34.000531" lon="-115.672819">
        <ele>497.898438</ele>
        <time>2021-04-03T18:56:20.000Z</time>
      </trkpt>
      <trkpt lat="34.000662" lon="-115.672861">
        <ele>498.500000</ele>
        <time>2021-04-03T18:56:23.000Z</time>
      </trkpt>
      <trkpt lat="34.000772" lon="-115.672903">
        <ele>498.500000</ele>
        <time>2021-04-03T18:56:26.000Z</time>
      </trkpt>
      <trkpt lat="34.000812" lon="-115.672912">
        <ele>498.500000</ele>
        <time>2021-04-03T18:56:28.000Z</time>
      </trkpt>
      <trkpt lat="34.000942" lon="-115.67293">
        <ele>498.796875</ele>
        <time>2021-04-03T18:56:30.000Z</time>
      </trkpt>
      <trkpt lat="34.006658" lon="-115.673684">
        <ele>517.796875</ele>
        <time>2021-04-03T18:58:08.000Z</time>
      </trkpt>
      <trkpt lat="34.006842" lon="-115.67372">
        <ele>518.597656</ele>
        <time>2021-04-03T18:58:11.000Z</time>
      </trkpt>
      <trkpt lat="34.007459" lon="-115.673781">
        <ele>522.597656</ele>
        <time>2021-04-03T18:58:20.000Z</time>
      </trkpt>
      <trkpt lat="34.00811" lon="-115.673807">
        <ele>525.398438</ele>
        <time>2021-04-03T18:58:29.000Z</time>
      </trkpt>
      <trkpt lat="34.008186" lon="-115.673819">
        <ele>526.097656</ele>
        <time>2021-04-03T18:58:30.000Z</time>
      </trkpt>
      <trkpt lat="34.008416" lon="-115.673853">
        <ele>527.597656</ele>
        <time>2021-04-03T18:58:33.000Z</time>
      </trkpt>
      <trkpt lat="34.009461" lon="-115.673931">
        <ele>531.199219</ele>
        <time>2021-04-03T18:58:46.000Z</time>
      </trkpt>
      <trkpt lat="34.01032" lon="-115.674114">
        <ele>535.699219</ele>
        <time>2021-04-03T18:58:56.000Z</time>
      </trkpt>
      <trkpt lat="34.011484" lon="-115.674437">
        <ele>541.699219</ele>
        <time>2021-04-03T18:59:11.000Z</time>
      </trkpt>
      <trkpt lat="34.011558" lon="-115.674468">
        <ele>542.199219</ele>
        <time>2021-04-03T18:59:12.000Z</time>
      </trkpt>
      <trkpt lat="34.011853" lon="-115.674593">
        <ele>543.199219</ele>
        <time>2021-04-03T18:59:16.000Z</time>
      </trkpt>
      <trkpt lat="34.011928" lon="-115.674608">
        <ele>543.398438</ele>
        <time>2021-04-03T18:59:17.000Z</time>
      </trkpt>
      <trkpt lat="34.012007" lon="-115.674612">
        <ele>543.699219</ele>
        <time>2021-04-03T18:59:18.000Z</time>
      </trkpt>
      <trkpt lat="34.012254" lon="-115.674624">
        <ele>544.699219</ele>
        <time>2021-04-03T18:59:21.000Z</time>
      </trkpt>
      <trkpt lat="34.012337" lon="-115.674648">
        <ele>545.000000</ele>
        <time>2021-04-03T18:59:22.000Z</time>
      </trkpt>
      <trkpt lat="34.012416" lon="-115.674685">
        <ele>545.699219</ele>
        <time>2021-04-03T18:59:23.000Z</time>
      </trkpt>
      <trkpt lat="34.012496" lon="-115.674726">
        <ele>546.097656</ele>
        <time>2021-04-03T18:59:24.000Z</time>
      </trkpt>
      <trkpt lat="34.012577" lon="-115.674754">
        <ele>546.597656</ele>
        <time>2021-04-03T18:59:25.000Z</time>
      </trkpt>
      <trkpt lat="34.012828" lon="-115.674819">
        <ele>547.699219</ele>
        <time>2021-04-03T18:59:28.000Z</time>
      </trkpt>
      <trkpt lat="34.017047" lon="-115.675921">
        <ele>566.500000</ele>
        <time>2021-04-03T19:00:22.000Z</time>
      </trkpt>
      <trkpt lat="34.017192" lon="-115.675981">
        <ele>567.296875</ele>
        <time>2021-04-03T19:00:24.000Z</time>
      </trkpt>
      <trkpt lat="34.0174" lon="-115.676094">
        <ele>568.199219</ele>
        <time>2021-04-03T19:00:27.000Z</time>
      </trkpt>
      <trkpt lat="34.017815" lon="-115.676353">
        <ele>570.000000</ele>
        <time>2021-04-03T19:00:33.000Z</time>
      </trkpt>
      <trkpt lat="34.017881" lon="-115.676404">
        <ele>570.296875</ele>
        <time>2021-04-03T19:00:34.000Z</time>
      </trkpt>
      <trkpt lat="34.017939" lon="-115.676458">
        <ele>570.097656</ele>
        <time>2021-04-03T19:00:35.000Z</time>
      </trkpt>
      <trkpt lat="34.01799" lon="-115.676515">
        <ele>570.199219</ele>
        <time>2021-04-03T19:00:36.000Z</time>
      </trkpt>
      <trkpt lat="34.018031" lon="-115.676568">
        <ele>570.398438</ele>
        <time>2021-04-03T19:00:37.000Z</time>
      </trkpt>
      <trkpt lat="34.018061" lon="-115.676617">
        <ele>570.398438</ele>
        <time>2021-04-03T19:00:38.000Z</time>
      </trkpt>
      <trkpt lat="34.018081" lon="-115.676662">
        <ele>570.097656</ele>
        <time>2021-04-03T19:00:40.000Z</time>
      </trkpt>
      <trkpt lat="34.018098" lon="-115.676734">
        <ele>569.500000</ele>
        <time>2021-04-03T19:00:42.000Z</time>
      </trkpt>
      <trkpt lat="34.018101" lon="-115.676785">
        <ele>568.097656</ele>
        <time>2021-04-03T19:00:45.000Z</time>
      </trkpt>
      <trkpt lat="34.018104" lon="-115.676873">
        <ele>567.699219</ele>
        <time>2021-04-03T19:00:46.000Z</time>
      </trkpt>
      <trkpt lat="34.01812" lon="-115.67706">
        <ele>565.796875</ele>
        <time>2021-04-03T19:00:53.000Z</time>
      </trkpt>
      <trkpt lat="34.018124" lon="-115.677087">
        <ele>565.000000</ele>
        <time>2021-04-03T19:00:58.000Z</time>
      </trkpt>
      <trkpt lat="34.018144" lon="-115.677174">
        <ele>564.500000</ele>
        <time>2021-04-03T19:00:59.000Z</time>
      </trkpt>
      <trkpt lat="34.018181" lon="-115.677346">
        <ele>562.199219</ele>
        <time>2021-04-03T19:01:06.000Z</time>
      </trkpt>
      <trkpt lat="34.018182" lon="-115.67737">
        <ele>561.199219</ele>
        <time>2021-04-03T19:01:11.000Z</time>
      </trkpt>
      <trkpt lat="34.018189" lon="-115.677459">
        <ele>561.097656</ele>
        <time>2021-04-03T19:01:13.000Z</time>
      </trkpt>
      <trkpt lat="34.018197" lon="-115.677484">
        <ele>561.097656</ele>
        <time>2021-04-03T19:01:18.000Z</time>
      </trkpt>
      <trkpt lat="34.018245" lon="-115.677561">
        <ele>561.097656</ele>
        <time>2021-04-03T19:01:19.000Z</time>
      </trkpt>
      <trkpt lat="34.01826" lon="-115.677578">
        <ele>561.699219</ele>
        <time>2021-04-03T19:01:24.000Z</time>
      </trkpt>
      <trkpt lat="34.01833" lon="-115.677657">
        <ele>562.000000</ele>
        <time>2021-04-03T19:01:26.000Z</time>
      </trkpt>
      <trkpt lat="34.018345" lon="-115.677669">
        <ele>562.398438</ele>
        <time>2021-04-03T19:01:30.000Z</time>
      </trkpt>
      <trkpt lat="34.018417" lon="-115.677721">
        <ele>562.398438</ele>
        <time>2021-04-03T19:01:31.000Z</time>
      </trkpt>
      <trkpt lat="34.018512" lon="-115.677782">
        <ele>562.796875</ele>
        <time>2021-04-03T19:01:36.000Z</time>
      </trkpt>
      <trkpt lat="34.01877" lon="-115.677929">
        <ele>564.296875</ele>
        <time>2021-04-03T19:01:48.000Z</time>
      </trkpt>
      <trkpt lat="34.018791" lon="-115.677947">
        <ele>564.398438</ele>
        <time>2021-04-03T19:01:51.000Z</time>
      </trkpt>
      <trkpt lat="34.018852" lon="-115.678012">
        <ele>564.296875</ele>
        <time>2021-04-03T19:01:52.000Z</time>
      </trkpt>
      <trkpt lat="34.018874" lon="-115.678031">
        <ele>564.500000</ele>
        <time>2021-04-03T19:01:55.000Z</time>
      </trkpt>
      <trkpt lat="34.018954" lon="-115.678053">
        <ele>564.699219</ele>
        <time>2021-04-03T19:01:56.000Z</time>
      </trkpt>
      <trkpt lat="34.018979" lon="-115.678057">
        <ele>565.000000</ele>
        <time>2021-04-03T19:01:59.000Z</time>
      </trkpt>
      <trkpt lat="34.019053" lon="-115.678087">
        <ele>565.000000</ele>
        <time>2021-04-03T19:02:00.000Z</time>
      </trkpt>
      <trkpt lat="34.019076" lon="-115.678102">
        <ele>564.898438</ele>
        <time>2021-04-03T19:02:03.000Z</time>
      </trkpt>
      <trkpt lat="34.019134" lon="-115.678166">
        <ele>565.000000</ele>
        <time>2021-04-03T19:02:04.000Z</time>
      </trkpt>
      <trkpt lat="34.019148" lon="-115.678191">
        <ele>564.898438</ele>
        <time>2021-04-03T19:02:07.000Z</time>
      </trkpt>
      <trkpt lat="34.019229" lon="-115.678306">
        <ele>565.097656</ele>
        <time>2021-04-03T19:02:10.000Z</time>
      </trkpt>
      <trkpt lat="34.019321" lon="-115.678426">
        <ele>565.296875</ele>
        <time>2021-04-03T19:02:15.000Z</time>
      </trkpt>
      <trkpt lat="34.019342" lon="-115.678448">
        <ele>565.199219</ele>
        <time>2021-04-03T19:02:18.000Z</time>
      </trkpt>
      <trkpt lat="34.019484" lon="-115.678591">
        <ele>565.296875</ele>
        <time>2021-04-03T19:02:25.000Z</time>
      </trkpt>
      <trkpt lat="34.019482" lon="-115.67859">
        <ele>564.398438</ele>
        <time>2021-04-03T19:02:59.000Z</time>
      </trkpt>
      <trkpt lat="34.019561" lon="-115.678658">
        <ele>564.500000</ele>
        <time>2021-04-03T19:03:00.000Z</time>
      </trkpt>
      <trkpt lat="34.019637" lon="-115.678717">
        <ele>564.796875</ele>
        <time>2021-04-03T19:03:03.000Z</time>
      </trkpt>
      <trkpt lat="34.020159" lon="-115.67911">
        <ele>566.199219</ele>
        <time>2021-04-03T19:03:28.000Z</time>
      </trkpt>
      <trkpt lat="34.020174" lon="-115.679118">
        <ele>567.796875</ele>
        <time>2021-04-03T19:14:07.000Z</time>
      </trkpt>
      <trkpt lat="34.020247" lon="-115.679151">
        <ele>567.898438</ele>
        <time>2021-04-03T19:14:09.000Z</time>
      </trkpt>
      <trkpt lat="34.020263" lon="-115.679165">
        <ele>568.500000</ele>
        <time>2021-04-03T19:14:15.000Z</time>
      </trkpt>
      <trkpt lat="34.02033" lon="-115.679229">
        <ele>568.597656</ele>
        <time>2021-04-03T19:14:16.000Z</time>
      </trkpt>
      <trkpt lat="34.020338" lon="-115.679245">
        <ele>570.898438</ele>
        <time>2021-04-03T19:14:22.000Z</time>
      </trkpt>
      <trkpt lat="34.020394" lon="-115.679321">
        <ele>571.199219</ele>
        <time>2021-04-03T19:14:23.000Z</time>
      </trkpt>
      <trkpt lat="34.02041" lon="-115.679326">
        <ele>572.296875</ele>
        <time>2021-04-03T19:14:28.000Z</time>
      </trkpt>
      <trkpt lat="34.020498" lon="-115.679328">
        <ele>572.597656</ele>
        <time>2021-04-03T19:14:29.000Z</time>
      </trkpt>
      <trkpt lat="34.020525" lon="-115.67933">
        <ele>573.097656</ele>
        <time>2021-04-03T19:14:32.000Z</time>
      </trkpt>
      <trkpt lat="34.020612" lon="-115.679359">
        <ele>573.000000</ele>
        <time>2021-04-03T19:14:33.000Z</time>
      </trkpt>
      <trkpt lat="34.020639" lon="-115.679378">
        <ele>573.296875</ele>
        <time>2021-04-03T19:14:36.000Z</time>
      </trkpt>
      <trkpt lat="34.020707" lon="-115.67943">
        <ele>573.296875</ele>
        <time>2021-04-03T19:14:37.000Z</time>
      </trkpt>
      <trkpt lat="34.021053" lon="-115.67969">
        <ele>575.296875</ele>
        <time>2021-04-03T19:14:53.000Z</time>
      </trkpt>
      <trkpt lat="34.021075" lon="-115.679718">
        <ele>575.597656</ele>
        <time>2021-04-03T19:14:56.000Z</time>
      </trkpt>
      <trkpt lat="34.021113" lon="-115.679813">
        <ele>575.597656</ele>
        <time>2021-04-03T19:14:57.000Z</time>
      </trkpt>
      <trkpt lat="34.021121" lon="-115.67985">
        <ele>575.796875</ele>
        <time>2021-04-03T19:14:59.000Z</time>
      </trkpt>
      <trkpt lat="34.021129" lon="-115.679925">
        <ele>575.398438</ele>
        <time>2021-04-03T19:15:00.000Z</time>
      </trkpt>
      <trkpt lat="34.021143" lon="-115.680128">
        <ele>575.796875</ele>
        <time>2021-04-03T19:15:05.000Z</time>
      </trkpt>
      <trkpt lat="34.021149" lon="-115.680241">
        <ele>575.898438</ele>
        <time>2021-04-03T19:15:10.000Z</time>
      </trkpt>
      <trkpt lat="34.02115" lon="-115.680241">
        <ele>574.000000</ele>
        <time>2021-04-03T19:15:27.000Z</time>
      </trkpt>
      <trkpt lat="34.021174" lon="-115.680368">
        <ele>574.097656</ele>
        <time>2021-04-03T19:15:28.000Z</time>
      </trkpt>
      <trkpt lat="34.021178" lon="-115.680398">
        <ele>573.500000</ele>
        <time>2021-04-03T19:15:32.000Z</time>
      </trkpt>
      <trkpt lat="34.021215" lon="-115.68048">
        <ele>573.398438</ele>
        <time>2021-04-03T19:15:34.000Z</time>
      </trkpt>
      <trkpt lat="34.021232" lon="-115.680503">
        <ele>573.000000</ele>
        <time>2021-04-03T19:15:39.000Z</time>
      </trkpt>
      <trkpt lat="34.021297" lon="-115.680594">
        <ele>572.898438</ele>
        <time>2021-04-03T19:15:41.000Z</time>
      </trkpt>
      <trkpt lat="34.021309" lon="-115.680618">
        <ele>572.597656</ele>
        <time>2021-04-03T19:16:07.000Z</time>
      </trkpt>
      <trkpt lat="34.021336" lon="-115.680696">
        <ele>573.898438</ele>
        <time>2021-04-03T19:16:09.000Z</time>
      </trkpt>
      <trkpt lat="34.021387" lon="-115.68081">
        <ele>576.796875</ele>
        <time>2021-04-03T19:16:14.000Z</time>
      </trkpt>
      <trkpt lat="34.021393" lon="-115.680828">
        <ele>577.296875</ele>
        <time>2021-04-03T19:16:18.000Z</time>
      </trkpt>
      <trkpt lat="34.021426" lon="-115.680925">
        <ele>577.500000</ele>
        <time>2021-04-03T19:16:19.000Z</time>
      </trkpt>
      <trkpt lat="34.02144" lon="-115.680955">
        <ele>577.898438</ele>
        <time>2021-04-03T19:16:22.000Z</time>
      </trkpt>
      <trkpt lat="34.021486" lon="-115.68103">
        <ele>578.199219</ele>
        <time>2021-04-03T19:16:23.000Z</time>
      </trkpt>
      <trkpt lat="34.02155" lon="-115.681126">
        <ele>579.398438</ele>
        <time>2021-04-03T19:16:28.000Z</time>
      </trkpt>
      <trkpt lat="34.021565" lon="-115.681144">
        <ele>579.898438</ele>
        <time>2021-04-03T19:16:32.000Z</time>
      </trkpt>
      <trkpt lat="34.021667" lon="-115.681257">
        <ele>581.199219</ele>
        <time>2021-04-03T19:16:35.000Z</time>
      </trkpt>
      <trkpt lat="34.021688" lon="-115.681271">
        <ele>582.296875</ele>
        <time>2021-04-03T19:16:39.000Z</time>
      </trkpt>
      <trkpt lat="34.021792" lon="-115.681348">
        <ele>582.699219</ele>
        <time>2021-04-03T19:16:42.000Z</time>
      </trkpt>
      <trkpt lat="34.021806" lon="-115.681365">
        <ele>583.699219</ele>
        <time>2021-04-03T19:16:46.000Z</time>
      </trkpt>
      <trkpt lat="34.021853" lon="-115.68145">
        <ele>584.000000</ele>
        <time>2021-04-03T19:16:47.000Z</time>
      </trkpt>
      <trkpt lat="34.021865" lon="-115.681472">
        <ele>583.796875</ele>
        <time>2021-04-03T19:17:54.000Z</time>
      </trkpt>
      <trkpt lat="34.021886" lon="-115.681558">
        <ele>583.500000</ele>
        <time>2021-04-03T19:17:56.000Z</time>
      </trkpt>
      <trkpt lat="34.021896" lon="-115.681577">
        <ele>584.699219</ele>
        <time>2021-04-03T19:18:02.000Z</time>
      </trkpt>
      <trkpt lat="34.021935" lon="-115.681667">
        <ele>584.898438</ele>
        <time>2021-04-03T19:18:03.000Z</time>
      </trkpt>
      <trkpt lat="34.021945" lon="-115.681682">
        <ele>586.199219</ele>
        <time>2021-04-03T19:18:08.000Z</time>
      </trkpt>
      <trkpt lat="34.021988" lon="-115.681766">
        <ele>586.500000</ele>
        <time>2021-04-03T19:18:09.000Z</time>
      </trkpt>
      <trkpt lat="34.021995" lon="-115.681783">
        <ele>587.597656</ele>
        <time>2021-04-03T19:18:14.000Z</time>
      </trkpt>
      <trkpt lat="34.022053" lon="-115.681957">
        <ele>587.699219</ele>
        <time>2021-04-03T19:18:19.000Z</time>
      </trkpt>
      <trkpt lat="34.022058" lon="-115.681979">
        <ele>589.398438</ele>
        <time>2021-04-03T19:18:24.000Z</time>
      </trkpt>
      <trkpt lat="34.022079" lon="-115.682082">
        <ele>589.597656</ele>
        <time>2021-04-03T19:18:25.000Z</time>
      </trkpt>
      <trkpt lat="34.022082" lon="-115.682104">
        <ele>591.000000</ele>
        <time>2021-04-03T19:18:29.000Z</time>
      </trkpt>
      <trkpt lat="34.022089" lon="-115.682197">
        <ele>591.097656</ele>
        <time>2021-04-03T19:18:30.000Z</time>
      </trkpt>
      <trkpt lat="34.022088" lon="-115.682222">
        <ele>592.296875</ele>
        <time>2021-04-03T19:18:33.000Z</time>
      </trkpt>
      <trkpt lat="34.022075" lon="-115.682417">
        <ele>593.699219</ele>
        <time>2021-04-03T19:18:38.000Z</time>
      </trkpt>
      <trkpt lat="34.022071" lon="-115.682446">
        <ele>594.199219</ele>
        <time>2021-04-03T19:18:41.000Z</time>
      </trkpt>
      <trkpt lat="34.022072" lon="-115.682541">
        <ele>594.199219</ele>
        <time>2021-04-03T19:18:42.000Z</time>
      </trkpt>
      <trkpt lat="34.02208" lon="-115.682571">
        <ele>593.699219</ele>
        <time>2021-04-03T19:18:45.000Z</time>
      </trkpt>
      <trkpt lat="34.022142" lon="-115.682745">
        <ele>592.000000</ele>
        <time>2021-04-03T19:18:50.000Z</time>
      </trkpt>
      <trkpt lat="34.02215" lon="-115.682773">
        <ele>592.199219</ele>
        <time>2021-04-03T19:18:53.000Z</time>
      </trkpt>
      <trkpt lat="34.022164" lon="-115.682879">
        <ele>592.597656</ele>
        <time>2021-04-03T19:18:54.000Z</time>
      </trkpt>
      <trkpt lat="34.022167" lon="-115.682914">
        <ele>593.500000</ele>
        <time>2021-04-03T19:18:57.000Z</time>
      </trkpt>
      <trkpt lat="34.022185" lon="-115.683005">
        <ele>594.000000</ele>
        <time>2021-04-03T19:18:58.000Z</time>
      </trkpt>
      <trkpt lat="34.022194" lon="-115.683033">
        <ele>594.796875</ele>
        <time>2021-04-03T19:19:01.000Z</time>
      </trkpt>
      <trkpt lat="34.02225" lon="-115.683202">
        <ele>595.000000</ele>
        <time>2021-04-03T19:19:05.000Z</time>
      </trkpt>
      <trkpt lat="34.022255" lon="-115.683232">
        <ele>594.398438</ele>
        <time>2021-04-03T19:19:09.000Z</time>
      </trkpt>
      <trkpt lat="34.02226" lon="-115.68332">
        <ele>594.500000</ele>
        <time>2021-04-03T19:19:11.000Z</time>
      </trkpt>
      <trkpt lat="34.022263" lon="-115.683345">
        <ele>594.500000</ele>
        <time>2021-04-03T19:19:19.000Z</time>
      </trkpt>
      <trkpt lat="34.022275" lon="-115.683431">
        <ele>593.699219</ele>
        <time>2021-04-03T19:19:28.000Z</time>
      </trkpt>
      <trkpt lat="34.022273" lon="-115.68346">
        <ele>592.097656</ele>
        <time>2021-04-03T19:19:34.000Z</time>
      </trkpt>
      <trkpt lat="34.022287" lon="-115.683552">
        <ele>591.898438</ele>
        <time>2021-04-03T19:19:35.000Z</time>
      </trkpt>
      <trkpt lat="34.022291" lon="-115.683569">
        <ele>590.796875</ele>
        <time>2021-04-03T19:19:40.000Z</time>
      </trkpt>
      <trkpt lat="34.02233" lon="-115.683726">
        <ele>590.296875</ele>
        <time>2021-04-03T19:19:44.000Z</time>
      </trkpt>
      <trkpt lat="34.022336" lon="-115.683742">
        <ele>589.500000</ele>
        <time>2021-04-03T19:19:51.000Z</time>
      </trkpt>
      <trkpt lat="34.022379" lon="-115.683822">
        <ele>589.097656</ele>
        <time>2021-04-03T19:19:53.000Z</time>
      </trkpt>
      <trkpt lat="34.022396" lon="-115.68384">
        <ele>588.097656</ele>
        <time>2021-04-03T19:20:00.000Z</time>
      </trkpt>
      <trkpt lat="34.022485" lon="-115.683939">
        <ele>587.796875</ele>
        <time>2021-04-03T19:20:05.000Z</time>
      </trkpt>
      <trkpt lat="34.022496" lon="-115.683956">
        <ele>588.699219</ele>
        <time>2021-04-03T19:20:09.000Z</time>
      </trkpt>
      <trkpt lat="34.022565" lon="-115.684037">
        <ele>588.796875</ele>
        <time>2021-04-03T19:20:10.000Z</time>
      </trkpt>
      <trkpt lat="34.022584" lon="-115.684062">
        <ele>589.398438</ele>
        <time>2021-04-03T19:20:13.000Z</time>
      </trkpt>
      <trkpt lat="34.022634" lon="-115.684145">
        <ele>589.898438</ele>
        <time>2021-04-03T19:20:14.000Z</time>
      </trkpt>
      <trkpt lat="34.02265" lon="-115.684173">
        <ele>590.796875</ele>
        <time>2021-04-03T19:20:17.000Z</time>
      </trkpt>
      <trkpt lat="34.022704" lon="-115.684243">
        <ele>591.199219</ele>
        <time>2021-04-03T19:20:18.000Z</time>
      </trkpt>
      <trkpt lat="34.022721" lon="-115.684261">
        <ele>592.597656</ele>
        <time>2021-04-03T19:20:22.000Z</time>
      </trkpt>
      <trkpt lat="34.022791" lon="-115.68432">
        <ele>592.699219</ele>
        <time>2021-04-03T19:20:23.000Z</time>
      </trkpt>
      <trkpt lat="34.022887" lon="-115.684388">
        <ele>593.500000</ele>
        <time>2021-04-03T19:20:27.000Z</time>
      </trkpt>
      <trkpt lat="34.022995" lon="-115.684458">
        <ele>594.199219</ele>
        <time>2021-04-03T19:20:31.000Z</time>
      </trkpt>
      <trkpt lat="34.02325" lon="-115.684603">
        <ele>596.597656</ele>
        <time>2021-04-03T19:20:40.000Z</time>
      </trkpt>
      <trkpt lat="34.023276" lon="-115.684625">
        <ele>596.898438</ele>
        <time>2021-04-03T19:20:42.000Z</time>
      </trkpt>
      <trkpt lat="34.023321" lon="-115.684674">
        <ele>596.699219</ele>
        <time>2021-04-03T19:20:43.000Z</time>
      </trkpt>
      <trkpt lat="34.023342" lon="-115.6847">
        <ele>596.796875</ele>
        <time>2021-04-03T19:20:46.000Z</time>
      </trkpt>
      <trkpt lat="34.023494" lon="-115.684913">
        <ele>598.000000</ele>
        <time>2021-04-03T19:20:54.000Z</time>
      </trkpt>
      <trkpt lat="34.023507" lon="-115.684935">
        <ele>599.199219</ele>
        <time>2021-04-03T19:20:58.000Z</time>
      </trkpt>
      <trkpt lat="34.023546" lon="-115.685029">
        <ele>599.398438</ele>
        <time>2021-04-03T19:20:59.000Z</time>
      </trkpt>
      <trkpt lat="34.023557" lon="-115.685057">
        <ele>600.398438</ele>
        <time>2021-04-03T19:21:02.000Z</time>
      </trkpt>
      <trkpt lat="34.023599" lon="-115.68514">
        <ele>600.898438</ele>
        <time>2021-04-03T19:21:03.000Z</time>
      </trkpt>
      <trkpt lat="34.023617" lon="-115.685166">
        <ele>601.796875</ele>
        <time>2021-04-03T19:21:06.000Z</time>
      </trkpt>
      <trkpt lat="34.02368" lon="-115.685237">
        <ele>601.796875</ele>
        <time>2021-04-03T19:21:07.000Z</time>
      </trkpt>
      <trkpt lat="34.023706" lon="-115.685257">
        <ele>601.597656</ele>
        <time>2021-04-03T19:21:09.000Z</time>
      </trkpt>
      <trkpt lat="34.023787" lon="-115.685312">
        <ele>601.898438</ele>
        <time>2021-04-03T19:21:11.000Z</time>
      </trkpt>
      <trkpt lat="34.023814" lon="-115.685327">
        <ele>602.500000</ele>
        <time>2021-04-03T19:21:14.000Z</time>
      </trkpt>
      <trkpt lat="34.023896" lon="-115.685361">
        <ele>602.699219</ele>
        <time>2021-04-03T19:21:15.000Z</time>
      </trkpt>
      <trkpt lat="34.024011" lon="-115.685399">
        <ele>603.398438</ele>
        <time>2021-04-03T19:21:19.000Z</time>
      </trkpt>
      <trkpt lat="34.024155" lon="-115.685449">
        <ele>605.398438</ele>
        <time>2021-04-03T19:21:24.000Z</time>
      </trkpt>
      <trkpt lat="34.024183" lon="-115.685464">
        <ele>606.000000</ele>
        <time>2021-04-03T19:21:26.000Z</time>
      </trkpt>
      <trkpt lat="34.024239" lon="-115.6855">
        <ele>606.097656</ele>
        <time>2021-04-03T19:21:27.000Z</time>
      </trkpt>
      <trkpt lat="34.024264" lon="-115.685523">
        <ele>606.296875</ele>
        <time>2021-04-03T19:21:29.000Z</time>
      </trkpt>
      <trkpt lat="34.024307" lon="-115.685575">
        <ele>606.500000</ele>
        <time>2021-04-03T19:21:31.000Z</time>
      </trkpt>
      <trkpt lat="34.024617" lon="-115.685949">
        <ele>610.500000</ele>
        <time>2021-04-03T19:21:49.000Z</time>
      </trkpt>
      <trkpt lat="34.024635" lon="-115.685966">
        <ele>611.500000</ele>
        <time>2021-04-03T19:21:52.000Z</time>
      </trkpt>
      <trkpt lat="34.024692" lon="-115.686009">
        <ele>611.597656</ele>
        <time>2021-04-03T19:21:54.000Z</time>
      </trkpt>
      <trkpt lat="34.024732" lon="-115.68603">
        <ele>612.296875</ele>
        <time>2021-04-03T19:21:57.000Z</time>
      </trkpt>
      <trkpt lat="34.024792" lon="-115.686052">
        <ele>612.500000</ele>
        <time>2021-04-03T19:21:59.000Z</time>
      </trkpt>
      <trkpt lat="34.024833" lon="-115.686061">
        <ele>612.398438</ele>
        <time>2021-04-03T19:22:02.000Z</time>
      </trkpt>
      <trkpt lat="34.024898" lon="-115.686075">
        <ele>612.898438</ele>
        <time>2021-04-03T19:22:04.000Z</time>
      </trkpt>
      <trkpt lat="34.024941" lon="-115.686092">
        <ele>613.296875</ele>
        <time>2021-04-03T19:22:06.000Z</time>
      </trkpt>
      <trkpt lat="34.024985" lon="-115.686118">
        <ele>613.699219</ele>
        <time>2021-04-03T19:22:08.000Z</time>
      </trkpt>
      <trkpt lat="34.025028" lon="-115.686152">
        <ele>614.000000</ele>
        <time>2021-04-03T19:22:10.000Z</time>
      </trkpt>
      <trkpt lat="34.025068" lon="-115.686192">
        <ele>613.898438</ele>
        <time>2021-04-03T19:22:12.000Z</time>
      </trkpt>
      <trkpt lat="34.025107" lon="-115.68624">
        <ele>613.597656</ele>
        <time>2021-04-03T19:22:14.000Z</time>
      </trkpt>
      <trkpt lat="34.025144" lon="-115.686298">
        <ele>614.097656</ele>
        <time>2021-04-03T19:22:16.000Z</time>
      </trkpt>
      <trkpt lat="34.025176" lon="-115.686355">
        <ele>614.296875</ele>
        <time>2021-04-03T19:22:18.000Z</time>
      </trkpt>
      <trkpt lat="34.025281" lon="-115.686569">
        <ele>612.296875</ele>
        <time>2021-04-03T19:22:24.000Z</time>
      </trkpt>
      <trkpt lat="34.025565" lon="-115.686951">
        <ele>610.500000</ele>
        <time>2021-04-03T19:22:38.000Z</time>
      </trkpt>
      <trkpt lat="34.025588" lon="-115.686976">
        <ele>610.898438</ele>
        <time>2021-04-03T19:22:40.000Z</time>
      </trkpt>
      <trkpt lat="34.025663" lon="-115.687045">
        <ele>610.898438</ele>
        <time>2021-04-03T19:22:42.000Z</time>
      </trkpt>
      <trkpt lat="34.025691" lon="-115.687067">
        <ele>611.097656</ele>
        <time>2021-04-03T19:22:44.000Z</time>
      </trkpt>
      <trkpt lat="34.02575" lon="-115.687108">
        <ele>611.296875</ele>
        <time>2021-04-03T19:22:45.000Z</time>
      </trkpt>
      <trkpt lat="34.025779" lon="-115.687125">
        <ele>611.597656</ele>
        <time>2021-04-03T19:22:47.000Z</time>
      </trkpt>
      <trkpt lat="34.025848" lon="-115.68716">
        <ele>611.597656</ele>
        <time>2021-04-03T19:22:48.000Z</time>
      </trkpt>
      <trkpt lat="34.025886" lon="-115.687176">
        <ele>611.199219</ele>
        <time>2021-04-03T19:22:50.000Z</time>
      </trkpt>
      <trkpt lat="34.025969" lon="-115.687205">
        <ele>611.398438</ele>
        <time>2021-04-03T19:22:51.000Z</time>
      </trkpt>
      <trkpt lat="34.02644" lon="-115.687345">
        <ele>611.199219</ele>
        <time>2021-04-03T19:23:03.000Z</time>
      </trkpt>
      <trkpt lat="34.026458" lon="-115.687347">
        <ele>609.296875</ele>
        <time>2021-04-03T19:23:07.000Z</time>
      </trkpt>
      <trkpt lat="34.026542" lon="-115.687373">
        <ele>609.097656</ele>
        <time>2021-04-03T19:23:08.000Z</time>
      </trkpt>
      <trkpt lat="34.026561" lon="-115.687383">
        <ele>609.097656</ele>
        <time>2021-04-03T19:23:11.000Z</time>
      </trkpt>
      <trkpt lat="34.026631" lon="-115.687419">
        <ele>609.699219</ele>
        <time>2021-04-03T19:23:12.000Z</time>
      </trkpt>
      <trkpt lat="34.026655" lon="-115.687428">
        <ele>611.398438</ele>
        <time>2021-04-03T19:23:16.000Z</time>
      </trkpt>
      <trkpt lat="34.026785" lon="-115.687474">
        <ele>612.296875</ele>
        <time>2021-04-03T19:23:19.000Z</time>
      </trkpt>
      <trkpt lat="34.026999" lon="-115.68754">
        <ele>614.699219</ele>
        <time>2021-04-03T19:23:26.000Z</time>
      </trkpt>
      <trkpt lat="34.027157" lon="-115.68761">
        <ele>616.000000</ele>
        <time>2021-04-03T19:23:31.000Z</time>
      </trkpt>
      <trkpt lat="34.027253" lon="-115.687635">
        <ele>616.500000</ele>
        <time>2021-04-03T19:23:34.000Z</time>
      </trkpt>
      <trkpt lat="34.027384" lon="-115.687659">
        <ele>616.597656</ele>
        <time>2021-04-03T19:23:38.000Z</time>
      </trkpt>
      <trkpt lat="34.027484" lon="-115.687664">
        <ele>616.398438</ele>
        <time>2021-04-03T19:23:41.000Z</time>
      </trkpt>
      <trkpt lat="34.027578" lon="-115.687662">
        <ele>615.500000</ele>
        <time>2021-04-03T19:23:44.000Z</time>
      </trkpt>
      <trkpt lat="34.027803" lon="-115.687649">
        <ele>616.199219</ele>
        <time>2021-04-03T19:23:53.000Z</time>
      </trkpt>
      <trkpt lat="34.027823" lon="-115.687655">
        <ele>617.597656</ele>
        <time>2021-04-03T19:23:58.000Z</time>
      </trkpt>
      <trkpt lat="34.027922" lon="-115.68768">
        <ele>617.296875</ele>
        <time>2021-04-03T19:24:00.000Z</time>
      </trkpt>
      <trkpt lat="34.027941" lon="-115.68769">
        <ele>617.796875</ele>
        <time>2021-04-03T19:24:03.000Z</time>
      </trkpt>
      <trkpt lat="34.027999" lon="-115.687741">
        <ele>618.097656</ele>
        <time>2021-04-03T19:24:04.000Z</time>
      </trkpt>
      <trkpt lat="34.028091" lon="-115.68783">
        <ele>619.898438</ele>
        <time>2021-04-03T19:24:09.000Z</time>
      </trkpt>
      <trkpt lat="34.028106" lon="-115.68785">
        <ele>620.500000</ele>
        <time>2021-04-03T19:24:12.000Z</time>
      </trkpt>
      <trkpt lat="34.028193" lon="-115.687958">
        <ele>621.097656</ele>
        <time>2021-04-03T19:24:15.000Z</time>
      </trkpt>
      <trkpt lat="34.028215" lon="-115.687977">
        <ele>621.597656</ele>
        <time>2021-04-03T19:24:18.000Z</time>
      </trkpt>
      <trkpt lat="34.028309" lon="-115.68805">
        <ele>622.097656</ele>
        <time>2021-04-03T19:24:20.000Z</time>
      </trkpt>
      <trkpt lat="34.028331" lon="-115.688073">
        <ele>622.199219</ele>
        <time>2021-04-03T19:24:23.000Z</time>
      </trkpt>
      <trkpt lat="34.028435" lon="-115.688199">
        <ele>623.097656</ele>
        <time>2021-04-03T19:24:26.000Z</time>
      </trkpt>
      <trkpt lat="34.028563" lon="-115.688353">
        <ele>623.097656</ele>
        <time>2021-04-03T19:24:32.000Z</time>
      </trkpt>
      <trkpt lat="34.02859" lon="-115.68837">
        <ele>623.097656</ele>
        <time>2021-04-03T19:24:34.000Z</time>
      </trkpt>
      <trkpt lat="34.02867" lon="-115.688424">
        <ele>623.597656</ele>
        <time>2021-04-03T19:24:36.000Z</time>
      </trkpt>
      <trkpt lat="34.028918" lon="-115.688551">
        <ele>625.199219</ele>
        <time>2021-04-03T19:24:45.000Z</time>
      </trkpt>
      <trkpt lat="34.02894" lon="-115.68857">
        <ele>623.796875</ele>
        <time>2021-04-03T19:24:48.000Z</time>
      </trkpt>
      <trkpt lat="34.029" lon="-115.688643">
        <ele>623.699219</ele>
        <time>2021-04-03T19:24:49.000Z</time>
      </trkpt>
      <trkpt lat="34.029019" lon="-115.688673">
        <ele>624.097656</ele>
        <time>2021-04-03T19:24:51.000Z</time>
      </trkpt>
      <trkpt lat="34.02918" lon="-115.688908">
        <ele>625.699219</ele>
        <time>2021-04-03T19:24:57.000Z</time>
      </trkpt>
      <trkpt lat="34.029202" lon="-115.688933">
        <ele>626.000000</ele>
        <time>2021-04-03T19:25:00.000Z</time>
      </trkpt>
      <trkpt lat="34.02926" lon="-115.688984">
        <ele>625.597656</ele>
        <time>2021-04-03T19:25:01.000Z</time>
      </trkpt>
      <trkpt lat="34.029283" lon="-115.688995">
        <ele>623.500000</ele>
        <time>2021-04-03T19:25:04.000Z</time>
      </trkpt>
      <trkpt lat="34.029372" lon="-115.689035">
        <ele>622.500000</ele>
        <time>2021-04-03T19:25:05.000Z</time>
      </trkpt>
      <trkpt lat="34.02949" lon="-115.68909">
        <ele>621.898438</ele>
        <time>2021-04-03T19:25:08.000Z</time>
      </trkpt>
      <trkpt lat="34.029526" lon="-115.68911">
        <ele>621.796875</ele>
        <time>2021-04-03T19:25:10.000Z</time>
      </trkpt>
      <trkpt lat="34.029649" lon="-115.689179">
        <ele>622.500000</ele>
        <time>2021-04-03T19:25:15.000Z</time>
      </trkpt>
      <trkpt lat="34.029672" lon="-115.689194">
        <ele>623.000000</ele>
        <time>2021-04-03T19:25:18.000Z</time>
      </trkpt>
      <trkpt lat="34.029868" lon="-115.689307">
        <ele>623.796875</ele>
        <time>2021-04-03T19:25:24.000Z</time>
      </trkpt>
      <trkpt lat="34.029954" lon="-115.689346">
        <ele>625.199219</ele>
        <time>2021-04-03T19:25:30.000Z</time>
      </trkpt>
      <trkpt lat="34.029964" lon="-115.689355">
        <ele>625.699219</ele>
        <time>2021-04-03T19:25:37.000Z</time>
      </trkpt>
      <trkpt lat="34.030041" lon="-115.689401">
        <ele>625.699219</ele>
        <time>2021-04-03T19:25:38.000Z</time>
      </trkpt>
      <trkpt lat="34.030052" lon="-115.689406">
        <ele>625.699219</ele>
        <time>2021-04-03T19:25:43.000Z</time>
      </trkpt>
      <trkpt lat="34.030128" lon="-115.689469">
        <ele>625.699219</ele>
        <time>2021-04-03T19:25:44.000Z</time>
      </trkpt>
      <trkpt lat="34.030212" lon="-115.68955">
        <ele>625.898438</ele>
        <time>2021-04-03T19:25:49.000Z</time>
      </trkpt>
      <trkpt lat="34.030228" lon="-115.689569">
        <ele>626.199219</ele>
        <time>2021-04-03T19:25:53.000Z</time>
      </trkpt>
      <trkpt lat="34.030274" lon="-115.689645">
        <ele>626.398438</ele>
        <time>2021-04-03T19:25:54.000Z</time>
      </trkpt>
      <trkpt lat="34.030281" lon="-115.689661">
        <ele>626.796875</ele>
        <time>2021-04-03T19:25:58.000Z</time>
      </trkpt>
      <trkpt lat="34.030371" lon="-115.689835">
        <ele>627.398438</ele>
        <time>2021-04-03T19:26:03.000Z</time>
      </trkpt>
      <trkpt lat="34.030385" lon="-115.689854">
        <ele>627.597656</ele>
        <time>2021-04-03T19:26:07.000Z</time>
      </trkpt>
      <trkpt lat="34.030454" lon="-115.689938">
        <ele>627.898438</ele>
        <time>2021-04-03T19:26:09.000Z</time>
      </trkpt>
      <trkpt lat="34.030468" lon="-115.68995">
        <ele>628.097656</ele>
        <time>2021-04-03T19:26:15.000Z</time>
      </trkpt>
      <trkpt lat="34.030521" lon="-115.690028">
        <ele>628.296875</ele>
        <time>2021-04-03T19:26:16.000Z</time>
      </trkpt>
      <trkpt lat="34.030528" lon="-115.690035">
        <ele>630.097656</ele>
        <time>2021-04-03T19:26:25.000Z</time>
      </trkpt>
      <trkpt lat="34.030573" lon="-115.690122">
        <ele>630.097656</ele>
        <time>2021-04-03T19:26:26.000Z</time>
      </trkpt>
      <trkpt lat="34.030574" lon="-115.690131">
        <ele>631.199219</ele>
        <time>2021-04-03T19:26:35.000Z</time>
      </trkpt>
      <trkpt lat="34.030626" lon="-115.690211">
        <ele>631.199219</ele>
        <time>2021-04-03T19:26:36.000Z</time>
      </trkpt>
      <trkpt lat="34.030634" lon="-115.690219">
        <ele>632.097656</ele>
        <time>2021-04-03T19:26:44.000Z</time>
      </trkpt>
      <trkpt lat="34.030667" lon="-115.690311">
        <ele>631.898438</ele>
        <time>2021-04-03T19:26:45.000Z</time>
      </trkpt>
      <trkpt lat="34.030672" lon="-115.690323">
        <ele>632.597656</ele>
        <time>2021-04-03T19:26:51.000Z</time>
      </trkpt>
      <trkpt lat="34.030748" lon="-115.690461">
        <ele>633.199219</ele>
        <time>2021-04-03T19:26:54.000Z</time>
      </trkpt>
      <trkpt lat="34.030766" lon="-115.690481">
        <ele>634.199219</ele>
        <time>2021-04-03T19:26:57.000Z</time>
      </trkpt>
      <trkpt lat="34.030866" lon="-115.69059">
        <ele>634.699219</ele>
        <time>2021-04-03T19:27:00.000Z</time>
      </trkpt>
      <trkpt lat="34.030892" lon="-115.690608">
        <ele>633.500000</ele>
        <time>2021-04-03T19:27:02.000Z</time>
      </trkpt>
      <trkpt lat="34.03095" lon="-115.690635">
        <ele>633.296875</ele>
        <time>2021-04-03T19:27:03.000Z</time>
      </trkpt>
      <trkpt lat="34.030979" lon="-115.690645">
        <ele>633.000000</ele>
        <time>2021-04-03T19:27:06.000Z</time>
      </trkpt>
      <trkpt lat="34.031057" lon="-115.690684">
        <ele>633.097656</ele>
        <time>2021-04-03T19:27:07.000Z</time>
      </trkpt>
      <trkpt lat="34.031183" lon="-115.690747">
        <ele>633.296875</ele>
        <time>2021-04-03T19:27:12.000Z</time>
      </trkpt>
      <trkpt lat="34.031211" lon="-115.690754">
        <ele>633.597656</ele>
        <time>2021-04-03T19:27:15.000Z</time>
      </trkpt>
      <trkpt lat="34.031294" lon="-115.69077">
        <ele>633.500000</ele>
        <time>2021-04-03T19:27:16.000Z</time>
      </trkpt>
      <trkpt lat="34.031317" lon="-115.69078">
        <ele>633.296875</ele>
        <time>2021-04-03T19:27:19.000Z</time>
      </trkpt>
      <trkpt lat="34.031387" lon="-115.690824">
        <ele>633.097656</ele>
        <time>2021-04-03T19:27:20.000Z</time>
      </trkpt>
      <trkpt lat="34.031531" lon="-115.69092">
        <ele>632.796875</ele>
        <time>2021-04-03T19:27:27.000Z</time>
      </trkpt>
      <trkpt lat="34.031547" lon="-115.690928">
        <ele>634.199219</ele>
        <time>2021-04-03T19:27:34.000Z</time>
      </trkpt>
      <trkpt lat="34.031618" lon="-115.690968">
        <ele>634.796875</ele>
        <time>2021-04-03T19:27:36.000Z</time>
      </trkpt>
      <trkpt lat="34.031636" lon="-115.690982">
        <ele>635.898438</ele>
        <time>2021-04-03T19:27:42.000Z</time>
      </trkpt>
      <trkpt lat="34.031701" lon="-115.691014">
        <ele>635.796875</ele>
        <time>2021-04-03T19:27:44.000Z</time>
      </trkpt>
      <trkpt lat="34.031814" lon="-115.691073">
        <ele>635.398438</ele>
        <time>2021-04-03T19:27:52.000Z</time>
      </trkpt>
      <trkpt lat="34.031828" lon="-115.691082">
        <ele>636.199219</ele>
        <time>2021-04-03T19:27:57.000Z</time>
      </trkpt>
      <trkpt lat="34.031916" lon="-115.691133">
        <ele>636.000000</ele>
        <time>2021-04-03T19:27:59.000Z</time>
      </trkpt>
      <trkpt lat="34.031928" lon="-115.691138">
        <ele>635.699219</ele>
        <time>2021-04-03T19:28:05.000Z</time>
      </trkpt>
      <trkpt lat="34.031982" lon="-115.691209">
        <ele>636.199219</ele>
        <time>2021-04-03T19:28:06.000Z</time>
      </trkpt>
      <trkpt lat="34.031988" lon="-115.691222">
        <ele>636.898438</ele>
        <time>2021-04-03T19:28:13.000Z</time>
      </trkpt>
      <trkpt lat="34.032044" lon="-115.691294">
        <ele>638.097656</ele>
        <time>2021-04-03T19:28:27.000Z</time>
      </trkpt>
      <trkpt lat="34.032048" lon="-115.69131">
        <ele>640.000000</ele>
        <time>2021-04-03T19:28:33.000Z</time>
      </trkpt>
      <trkpt lat="34.032107" lon="-115.691398">
        <ele>640.500000</ele>
        <time>2021-04-03T19:28:34.000Z</time>
      </trkpt>
      <trkpt lat="34.032184" lon="-115.691509">
        <ele>642.296875</ele>
        <time>2021-04-03T19:28:40.000Z</time>
      </trkpt>
      <trkpt lat="34.032199" lon="-115.691526">
        <ele>643.796875</ele>
        <time>2021-04-03T19:28:45.000Z</time>
      </trkpt>
      <trkpt lat="34.032254" lon="-115.691585">
        <ele>644.199219</ele>
        <time>2021-04-03T19:28:47.000Z</time>
      </trkpt>
      <trkpt lat="34.032271" lon="-115.691593">
        <ele>645.898438</ele>
        <time>2021-04-03T19:28:54.000Z</time>
      </trkpt>
      <trkpt lat="34.032331" lon="-115.691647">
        <ele>646.296875</ele>
        <time>2021-04-03T19:28:56.000Z</time>
      </trkpt>
      <trkpt lat="34.03235" lon="-115.691664">
        <ele>647.000000</ele>
        <time>2021-04-03T19:29:01.000Z</time>
      </trkpt>
      <trkpt lat="34.032419" lon="-115.691712">
        <ele>647.199219</ele>
        <time>2021-04-03T19:29:02.000Z</time>
      </trkpt>
      <trkpt lat="34.032435" lon="-115.691721">
        <ele>647.398438</ele>
        <time>2021-04-03T19:29:06.000Z</time>
      </trkpt>
      <trkpt lat="34.032554" lon="-115.691774">
        <ele>648.000000</ele>
        <time>2021-04-03T19:29:09.000Z</time>
      </trkpt>
      <trkpt lat="34.032755" lon="-115.691846">
        <ele>650.796875</ele>
        <time>2021-04-03T19:29:17.000Z</time>
      </trkpt>
      <trkpt lat="34.032784" lon="-115.691848">
        <ele>651.597656</ele>
        <time>2021-04-03T19:29:20.000Z</time>
      </trkpt>
      <trkpt lat="34.032864" lon="-115.691839">
        <ele>652.097656</ele>
        <time>2021-04-03T19:29:21.000Z</time>
      </trkpt>
      <trkpt lat="34.032889" lon="-115.691831">
        <ele>653.097656</ele>
        <time>2021-04-03T19:29:24.000Z</time>
      </trkpt>
      <trkpt lat="34.032963" lon="-115.691813">
        <ele>653.296875</ele>
        <time>2021-04-03T19:29:25.000Z</time>
      </trkpt>
      <trkpt lat="34.032991" lon="-115.691815">
        <ele>654.097656</ele>
        <time>2021-04-03T19:29:28.000Z</time>
      </trkpt>
      <trkpt lat="34.033133" lon="-115.691827">
        <ele>655.000000</ele>
        <time>2021-04-03T19:29:31.000Z</time>
      </trkpt>
      <trkpt lat="34.033246" lon="-115.691858">
        <ele>654.898438</ele>
        <time>2021-04-03T19:29:36.000Z</time>
      </trkpt>
      <trkpt lat="34.033259" lon="-115.691859">
        <ele>654.500000</ele>
        <time>2021-04-03T19:29:45.000Z</time>
      </trkpt>
      <trkpt lat="34.033401" lon="-115.69188">
        <ele>654.597656</ele>
        <time>2021-04-03T19:29:49.000Z</time>
      </trkpt>
      <trkpt lat="34.033511" lon="-115.691907">
        <ele>655.796875</ele>
        <time>2021-04-03T19:29:55.000Z</time>
      </trkpt>
      <trkpt lat="34.033529" lon="-115.691915">
        <ele>656.398438</ele>
        <time>2021-04-03T19:29:59.000Z</time>
      </trkpt>
      <trkpt lat="34.033594" lon="-115.691963">
        <ele>656.597656</ele>
        <time>2021-04-03T19:30:00.000Z</time>
      </trkpt>
      <trkpt lat="34.033608" lon="-115.691977">
        <ele>657.398438</ele>
        <time>2021-04-03T19:30:04.000Z</time>
      </trkpt>
      <trkpt lat="34.033865" lon="-115.69224">
        <ele>658.796875</ele>
        <time>2021-04-03T19:30:18.000Z</time>
      </trkpt>
      <trkpt lat="34.034013" lon="-115.692339">
        <ele>659.699219</ele>
        <time>2021-04-03T19:30:26.000Z</time>
      </trkpt>
      <trkpt lat="34.034033" lon="-115.69235">
        <ele>660.398438</ele>
        <time>2021-04-03T19:30:30.000Z</time>
      </trkpt>
      <trkpt lat="34.034121" lon="-115.692385">
        <ele>660.699219</ele>
        <time>2021-04-03T19:30:32.000Z</time>
      </trkpt>
      <trkpt lat="34.034137" lon="-115.692391">
        <ele>662.000000</ele>
        <time>2021-04-03T19:30:37.000Z</time>
      </trkpt>
      <trkpt lat="34.034262" lon="-115.692439">
        <ele>663.597656</ele>
        <time>2021-04-03T19:30:41.000Z</time>
      </trkpt>
      <trkpt lat="34.034274" lon="-115.692446">
        <ele>666.000000</ele>
        <time>2021-04-03T19:30:49.000Z</time>
      </trkpt>
      <trkpt lat="34.034353" lon="-115.692471">
        <ele>665.699219</ele>
        <time>2021-04-03T19:30:50.000Z</time>
      </trkpt>
      <trkpt lat="34.034363" lon="-115.692469">
        <ele>666.796875</ele>
        <time>2021-04-03T19:30:57.000Z</time>
      </trkpt>
      <trkpt lat="34.034447" lon="-115.692469">
        <ele>667.000000</ele>
        <time>2021-04-03T19:30:58.000Z</time>
      </trkpt>
      <trkpt lat="34.034462" lon="-115.692473">
        <ele>667.500000</ele>
        <time>2021-04-03T19:31:03.000Z</time>
      </trkpt>
      <trkpt lat="34.03455" lon="-115.6925">
        <ele>668.199219</ele>
        <time>2021-04-03T19:31:05.000Z</time>
      </trkpt>
      <trkpt lat="34.034562" lon="-115.692509">
        <ele>669.097656</ele>
        <time>2021-04-03T19:31:11.000Z</time>
      </trkpt>
      <trkpt lat="34.034644" lon="-115.692527">
        <ele>669.296875</ele>
        <time>2021-04-03T19:31:12.000Z</time>
      </trkpt>
      <trkpt lat="34.034657" lon="-115.692529">
        <ele>668.097656</ele>
        <time>2021-04-03T19:34:58.000Z</time>
      </trkpt>
      <trkpt lat="34.034749" lon="-115.692526">
        <ele>668.199219</ele>
        <time>2021-04-03T19:34:59.000Z</time>
      </trkpt>
      <trkpt lat="34.034768" lon="-115.692529">
        <ele>668.500000</ele>
        <time>2021-04-03T19:35:03.000Z</time>
      </trkpt>
      <trkpt lat="34.034875" lon="-115.692552">
        <ele>669.097656</ele>
        <time>2021-04-03T19:35:05.000Z</time>
      </trkpt>
      <trkpt lat="34.034896" lon="-115.69256">
        <ele>669.796875</ele>
        <time>2021-04-03T19:35:08.000Z</time>
      </trkpt>
      <trkpt lat="34.034955" lon="-115.692605">
        <ele>669.597656</ele>
        <time>2021-04-03T19:35:09.000Z</time>
      </trkpt>
      <trkpt lat="34.034973" lon="-115.692618">
        <ele>669.597656</ele>
        <time>2021-04-03T19:35:13.000Z</time>
      </trkpt>
      <trkpt lat="34.03505" lon="-115.692658">
        <ele>669.699219</ele>
        <time>2021-04-03T19:35:14.000Z</time>
      </trkpt>
      <trkpt lat="34.035071" lon="-115.692665">
        <ele>670.500000</ele>
        <time>2021-04-03T19:35:18.000Z</time>
      </trkpt>
      <trkpt lat="34.03525" lon="-115.692735">
        <ele>672.000000</ele>
        <time>2021-04-03T19:35:24.000Z</time>
      </trkpt>
      <trkpt lat="34.035268" lon="-115.692745">
        <ele>672.199219</ele>
        <time>2021-04-03T19:35:28.000Z</time>
      </trkpt>
      <trkpt lat="34.03534" lon="-115.692808">
        <ele>672.097656</ele>
        <time>2021-04-03T19:35:29.000Z</time>
      </trkpt>
      <trkpt lat="34.035357" lon="-115.692828">
        <ele>672.398438</ele>
        <time>2021-04-03T19:35:32.000Z</time>
      </trkpt>
      <trkpt lat="34.035526" lon="-115.69302">
        <ele>673.597656</ele>
        <time>2021-04-03T19:35:41.000Z</time>
      </trkpt>
      <trkpt lat="34.035541" lon="-115.69304">
        <ele>673.597656</ele>
        <time>2021-04-03T19:35:45.000Z</time>
      </trkpt>
      <trkpt lat="34.035602" lon="-115.693108">
        <ele>673.597656</ele>
        <time>2021-04-03T19:35:46.000Z</time>
      </trkpt>
      <trkpt lat="34.035618" lon="-115.693124">
        <ele>674.296875</ele>
        <time>2021-04-03T19:35:50.000Z</time>
      </trkpt>
      <trkpt lat="34.035691" lon="-115.693174">
        <ele>674.597656</ele>
        <time>2021-04-03T19:35:51.000Z</time>
      </trkpt>
      <trkpt lat="34.035712" lon="-115.693186">
        <ele>674.898438</ele>
        <time>2021-04-03T19:35:55.000Z</time>
      </trkpt>
      <trkpt lat="34.036" lon="-115.693353">
        <ele>676.699219</ele>
        <time>2021-04-03T19:36:07.000Z</time>
      </trkpt>
      <trkpt lat="34.036182" lon="-115.693439">
        <ele>678.097656</ele>
        <time>2021-04-03T19:36:15.000Z</time>
      </trkpt>
      <trkpt lat="34.036204" lon="-115.693445">
        <ele>679.000000</ele>
        <time>2021-04-03T19:36:19.000Z</time>
      </trkpt>
      <trkpt lat="34.036309" lon="-115.69348">
        <ele>679.398438</ele>
        <time>2021-04-03T19:36:21.000Z</time>
      </trkpt>
      <trkpt lat="34.036332" lon="-115.69349">
        <ele>679.898438</ele>
        <time>2021-04-03T19:36:24.000Z</time>
      </trkpt>
      <trkpt lat="34.03641" lon="-115.69353">
        <ele>680.500000</ele>
        <time>2021-04-03T19:36:25.000Z</time>
      </trkpt>
      <trkpt lat="34.036435" lon="-115.693547">
        <ele>680.398438</ele>
        <time>2021-04-03T19:36:28.000Z</time>
      </trkpt>
      <trkpt lat="34.036508" lon="-115.693583">
        <ele>680.597656</ele>
        <time>2021-04-03T19:36:29.000Z</time>
      </trkpt>
      <trkpt lat="34.036655" lon="-115.693646">
        <ele>682.000000</ele>
        <time>2021-04-03T19:36:36.000Z</time>
      </trkpt>
      <trkpt lat="34.036674" lon="-115.693658">
        <ele>682.699219</ele>
        <time>2021-04-03T19:36:39.000Z</time>
      </trkpt>
      <trkpt lat="34.036728" lon="-115.693715">
        <ele>682.898438</ele>
        <time>2021-04-03T19:36:40.000Z</time>
      </trkpt>
      <trkpt lat="34.036843" lon="-115.693833">
        <ele>684.097656</ele>
        <time>2021-04-03T19:36:46.000Z</time>
      </trkpt>
      <trkpt lat="34.036862" lon="-115.693847">
        <ele>684.597656</ele>
        <time>2021-04-03T19:36:49.000Z</time>
      </trkpt>
      <trkpt lat="34.036921" lon="-115.693898">
        <ele>685.097656</ele>
        <time>2021-04-03T19:36:50.000Z</time>
      </trkpt>
      <trkpt lat="34.036938" lon="-115.693916">
        <ele>686.199219</ele>
        <time>2021-04-03T19:36:54.000Z</time>
      </trkpt>
      <trkpt lat="34.037011" lon="-115.693972">
        <ele>686.398438</ele>
        <time>2021-04-03T19:36:55.000Z</time>
      </trkpt>
      <trkpt lat="34.0371" lon="-115.694045">
        <ele>688.097656</ele>
        <time>2021-04-03T19:37:00.000Z</time>
      </trkpt>
      <trkpt lat="34.037118" lon="-115.694064">
        <ele>688.398438</ele>
        <time>2021-04-03T19:37:03.000Z</time>
      </trkpt>
      <trkpt lat="34.037165" lon="-115.694122">
        <ele>688.796875</ele>
        <time>2021-04-03T19:37:05.000Z</time>
      </trkpt>
      <trkpt lat="34.037195" lon="-115.694159">
        <ele>689.296875</ele>
        <time>2021-04-03T19:37:08.000Z</time>
      </trkpt>
      <trkpt lat="34.037246" lon="-115.69421">
        <ele>689.199219</ele>
        <time>2021-04-03T19:37:10.000Z</time>
      </trkpt>
      <trkpt lat="34.037284" lon="-115.694239">
        <ele>689.597656</ele>
        <time>2021-04-03T19:37:12.000Z</time>
      </trkpt>
      <trkpt lat="34.037392" lon="-115.694316">
        <ele>690.398438</ele>
        <time>2021-04-03T19:37:16.000Z</time>
      </trkpt>
      <trkpt lat="34.037415" lon="-115.694329">
        <ele>691.398438</ele>
        <time>2021-04-03T19:37:19.000Z</time>
      </trkpt>
      <trkpt lat="34.037484" lon="-115.694357">
        <ele>691.597656</ele>
        <time>2021-04-03T19:37:20.000Z</time>
      </trkpt>
      <trkpt lat="34.03751" lon="-115.694364">
        <ele>691.898438</ele>
        <time>2021-04-03T19:37:23.000Z</time>
      </trkpt>
      <trkpt lat="34.037617" lon="-115.694395">
        <ele>692.199219</ele>
        <time>2021-04-03T19:37:25.000Z</time>
      </trkpt>
      <trkpt lat="34.037782" lon="-115.694469">
        <ele>693.699219</ele>
        <time>2021-04-03T19:37:32.000Z</time>
      </trkpt>
      <trkpt lat="34.037958" lon="-115.694567">
        <ele>694.296875</ele>
        <time>2021-04-03T19:37:40.000Z</time>
      </trkpt>
      <trkpt lat="34.037981" lon="-115.694584">
        <ele>694.699219</ele>
        <time>2021-04-03T19:37:43.000Z</time>
      </trkpt>
      <trkpt lat="34.038226" lon="-115.694793">
        <ele>697.097656</ele>
        <time>2021-04-03T19:37:53.000Z</time>
      </trkpt>
      <trkpt lat="34.038248" lon="-115.694805">
        <ele>697.597656</ele>
        <time>2021-04-03T19:37:56.000Z</time>
      </trkpt>
      <trkpt lat="34.038322" lon="-115.694831">
        <ele>697.699219</ele>
        <time>2021-04-03T19:37:57.000Z</time>
      </trkpt>
      <trkpt lat="34.038349" lon="-115.694834">
        <ele>698.296875</ele>
        <time>2021-04-03T19:38:00.000Z</time>
      </trkpt>
      <trkpt lat="34.038425" lon="-115.694864">
        <ele>698.699219</ele>
        <time>2021-04-03T19:38:01.000Z</time>
      </trkpt>
      <trkpt lat="34.038446" lon="-115.694883">
        <ele>700.000000</ele>
        <time>2021-04-03T19:38:04.000Z</time>
      </trkpt>
      <trkpt lat="34.0385" lon="-115.694929">
        <ele>700.699219</ele>
        <time>2021-04-03T19:38:06.000Z</time>
      </trkpt>
      <trkpt lat="34.038542" lon="-115.694947">
        <ele>701.199219</ele>
        <time>2021-04-03T19:38:08.000Z</time>
      </trkpt>
      <trkpt lat="34.038592" lon="-115.694962">
        <ele>702.000000</ele>
        <time>2021-04-03T19:38:10.000Z</time>
      </trkpt>
      <trkpt lat="34.038646" lon="-115.694977">
        <ele>702.796875</ele>
        <time>2021-04-03T19:38:12.000Z</time>
      </trkpt>
      <trkpt lat="34.038697" lon="-115.695008">
        <ele>703.500000</ele>
        <time>2021-04-03T19:38:14.000Z</time>
      </trkpt>
      <trkpt lat="34.038742" lon="-115.695049">
        <ele>704.296875</ele>
        <time>2021-04-03T19:38:16.000Z</time>
      </trkpt>
      <trkpt lat="34.038785" lon="-115.695093">
        <ele>705.000000</ele>
        <time>2021-04-03T19:38:18.000Z</time>
      </trkpt>
      <trkpt lat="34.038829" lon="-115.695143">
        <ele>705.296875</ele>
        <time>2021-04-03T19:38:20.000Z</time>
      </trkpt>
      <trkpt lat="34.03887" lon="-115.695197">
        <ele>705.597656</ele>
        <time>2021-04-03T19:38:21.000Z</time>
      </trkpt>
      <trkpt lat="34.03889" lon="-115.695228">
        <ele>706.199219</ele>
        <time>2021-04-03T19:38:23.000Z</time>
      </trkpt>
      <trkpt lat="34.038927" lon="-115.695293">
        <ele>706.796875</ele>
        <time>2021-04-03T19:38:24.000Z</time>
      </trkpt>
      <trkpt lat="34.038991" lon="-115.695409">
        <ele>708.000000</ele>
        <time>2021-04-03T19:38:28.000Z</time>
      </trkpt>
      <trkpt lat="34.03901" lon="-115.695434">
        <ele>708.597656</ele>
        <time>2021-04-03T19:38:31.000Z</time>
      </trkpt>
      <trkpt lat="34.039089" lon="-115.695529">
        <ele>709.097656</ele>
        <time>2021-04-03T19:38:33.000Z</time>
      </trkpt>
      <trkpt lat="34.039167" lon="-115.695605">
        <ele>709.500000</ele>
        <time>2021-04-03T19:38:37.000Z</time>
      </trkpt>
      <trkpt lat="34.039244" lon="-115.695698">
        <ele>709.699219</ele>
        <time>2021-04-03T19:38:41.000Z</time>
      </trkpt>
      <trkpt lat="34.039269" lon="-115.695712">
        <ele>710.296875</ele>
        <time>2021-04-03T19:38:44.000Z</time>
      </trkpt>
      <trkpt lat="34.039346" lon="-115.695753">
        <ele>710.500000</ele>
        <time>2021-04-03T19:38:45.000Z</time>
      </trkpt>
      <trkpt lat="34.039369" lon="-115.695774">
        <ele>711.000000</ele>
        <time>2021-04-03T19:38:48.000Z</time>
      </trkpt>
      <trkpt lat="34.039427" lon="-115.695849">
        <ele>711.000000</ele>
        <time>2021-04-03T19:38:49.000Z</time>
      </trkpt>
      <trkpt lat="34.039546" lon="-115.695995">
        <ele>710.796875</ele>
        <time>2021-04-03T19:38:55.000Z</time>
      </trkpt>
      <trkpt lat="34.039566" lon="-115.696015">
        <ele>711.000000</ele>
        <time>2021-04-03T19:38:58.000Z</time>
      </trkpt>
      <trkpt lat="34.039638" lon="-115.696054">
        <ele>711.097656</ele>
        <time>2021-04-03T19:38:59.000Z</time>
      </trkpt>
      <trkpt lat="34.039664" lon="-115.696064">
        <ele>711.398438</ele>
        <time>2021-04-03T19:39:02.000Z</time>
      </trkpt>
      <trkpt lat="34.03974" lon="-115.6961">
        <ele>711.597656</ele>
        <time>2021-04-03T19:39:03.000Z</time>
      </trkpt>
      <trkpt lat="34.039762" lon="-115.696115">
        <ele>712.000000</ele>
        <time>2021-04-03T19:39:06.000Z</time>
      </trkpt>
      <trkpt lat="34.039821" lon="-115.696162">
        <ele>711.898438</ele>
        <time>2021-04-03T19:39:07.000Z</time>
      </trkpt>
      <trkpt lat="34.039841" lon="-115.696174">
        <ele>712.398438</ele>
        <time>2021-04-03T19:39:10.000Z</time>
      </trkpt>
      <trkpt lat="34.039913" lon="-115.696191">
        <ele>712.398438</ele>
        <time>2021-04-03T19:39:11.000Z</time>
      </trkpt>
      <trkpt lat="34.03994" lon="-115.696197">
        <ele>712.796875</ele>
        <time>2021-04-03T19:39:14.000Z</time>
      </trkpt>
      <trkpt lat="34.040016" lon="-115.696226">
        <ele>713.199219</ele>
        <time>2021-04-03T19:39:15.000Z</time>
      </trkpt>
      <trkpt lat="34.040037" lon="-115.696236">
        <ele>713.699219</ele>
        <time>2021-04-03T19:39:18.000Z</time>
      </trkpt>
      <trkpt lat="34.040126" lon="-115.696289">
        <ele>713.296875</ele>
        <time>2021-04-03T19:39:20.000Z</time>
      </trkpt>
      <trkpt lat="34.040151" lon="-115.696312">
        <ele>713.398438</ele>
        <time>2021-04-03T19:39:23.000Z</time>
      </trkpt>
      <trkpt lat="34.04021" lon="-115.696371">
        <ele>713.398438</ele>
        <time>2021-04-03T19:39:24.000Z</time>
      </trkpt>
      <trkpt lat="34.040305" lon="-115.69649">
        <ele>715.500000</ele>
        <time>2021-04-03T19:39:30.000Z</time>
      </trkpt>
      <trkpt lat="34.04038" lon="-115.69659">
        <ele>717.097656</ele>
        <time>2021-04-03T19:39:34.000Z</time>
      </trkpt>
      <trkpt lat="34.040398" lon="-115.696618">
        <ele>717.898438</ele>
        <time>2021-04-03T19:39:37.000Z</time>
      </trkpt>
      <trkpt lat="34.040441" lon="-115.696711">
        <ele>717.898438</ele>
        <time>2021-04-03T19:39:38.000Z</time>
      </trkpt>
      <trkpt lat="34.040497" lon="-115.696833">
        <ele>718.000000</ele>
        <time>2021-04-03T19:39:42.000Z</time>
      </trkpt>
      <trkpt lat="34.040514" lon="-115.696861">
        <ele>717.898438</ele>
        <time>2021-04-03T19:39:45.000Z</time>
      </trkpt>
      <trkpt lat="34.040582" lon="-115.696928">
        <ele>717.898438</ele>
        <time>2021-04-03T19:39:46.000Z</time>
      </trkpt>
      <trkpt lat="34.040611" lon="-115.696946">
        <ele>718.000000</ele>
        <time>2021-04-03T19:39:48.000Z</time>
      </trkpt>
      <trkpt lat="34.041007" lon="-115.697186">
        <ele>719.296875</ele>
        <time>2021-04-03T19:40:01.000Z</time>
      </trkpt>
      <trkpt lat="34.041137" lon="-115.697241">
        <ele>720.000000</ele>
        <time>2021-04-03T19:40:06.000Z</time>
      </trkpt>
      <trkpt lat="34.041308" lon="-115.697298">
        <ele>719.296875</ele>
        <time>2021-04-03T19:40:13.000Z</time>
      </trkpt>
      <trkpt lat="34.041328" lon="-115.697306">
        <ele>719.898438</ele>
        <time>2021-04-03T19:40:16.000Z</time>
      </trkpt>
      <trkpt lat="34.041393" lon="-115.697355">
        <ele>720.097656</ele>
        <time>2021-04-03T19:40:17.000Z</time>
      </trkpt>
      <trkpt lat="34.041611" lon="-115.697542">
        <ele>720.898438</ele>
        <time>2021-04-03T19:40:26.000Z</time>
      </trkpt>
      <trkpt lat="34.041953" lon="-115.697858">
        <ele>722.000000</ele>
        <time>2021-04-03T19:40:39.000Z</time>
      </trkpt>
      <trkpt lat="34.041979" lon="-115.697875">
        <ele>721.898438</ele>
        <time>2021-04-03T19:40:42.000Z</time>
      </trkpt>
      <trkpt lat="34.042062" lon="-115.697914">
        <ele>721.699219</ele>
        <time>2021-04-03T19:40:43.000Z</time>
      </trkpt>
      <trkpt lat="34.042092" lon="-115.697922">
        <ele>721.500000</ele>
        <time>2021-04-03T19:40:45.000Z</time>
      </trkpt>
      <trkpt lat="34.042154" lon="-115.697931">
        <ele>721.398438</ele>
        <time>2021-04-03T19:40:46.000Z</time>
      </trkpt>
      <trkpt lat="34.042271" lon="-115.697939">
        <ele>721.796875</ele>
        <time>2021-04-03T19:40:50.000Z</time>
      </trkpt>
      <trkpt lat="34.042478" lon="-115.697964">
        <ele>722.296875</ele>
        <time>2021-04-03T19:40:57.000Z</time>
      </trkpt>
      <trkpt lat="34.042568" lon="-115.697988">
        <ele>722.699219</ele>
        <time>2021-04-03T19:41:00.000Z</time>
      </trkpt>
      <trkpt lat="34.042597" lon="-115.698001">
        <ele>722.898438</ele>
        <time>2021-04-03T19:41:02.000Z</time>
      </trkpt>
      <trkpt lat="34.04265" lon="-115.698034">
        <ele>722.796875</ele>
        <time>2021-04-03T19:41:04.000Z</time>
      </trkpt>
      <trkpt lat="34.043025" lon="-115.69831">
        <ele>721.898438</ele>
        <time>2021-04-03T19:41:19.000Z</time>
      </trkpt>
      <trkpt lat="34.043045" lon="-115.698327">
        <ele>721.296875</ele>
        <time>2021-04-03T19:41:23.000Z</time>
      </trkpt>
      <trkpt lat="34.043143" lon="-115.698427">
        <ele>720.699219</ele>
        <time>2021-04-03T19:41:26.000Z</time>
      </trkpt>
      <trkpt lat="34.043157" lon="-115.698442">
        <ele>720.296875</ele>
        <time>2021-04-03T19:41:30.000Z</time>
      </trkpt>
      <trkpt lat="34.043248" lon="-115.698551">
        <ele>721.398438</ele>
        <time>2021-04-03T19:41:33.000Z</time>
      </trkpt>
      <trkpt lat="34.043263" lon="-115.698573">
        <ele>722.097656</ele>
        <time>2021-04-03T19:41:36.000Z</time>
      </trkpt>
      <trkpt lat="34.043326" lon="-115.698635">
        <ele>722.199219</ele>
        <time>2021-04-03T19:41:37.000Z</time>
      </trkpt>
      <trkpt lat="34.043353" lon="-115.69865">
        <ele>722.597656</ele>
        <time>2021-04-03T19:41:39.000Z</time>
      </trkpt>
      <trkpt lat="34.043412" lon="-115.698664">
        <ele>723.097656</ele>
        <time>2021-04-03T19:41:41.000Z</time>
      </trkpt>
      <trkpt lat="34.04347" lon="-115.698668">
        <ele>723.699219</ele>
        <time>2021-04-03T19:41:43.000Z</time>
      </trkpt>
      <trkpt lat="34.04369" lon="-115.698673">
        <ele>724.097656</ele>
        <time>2021-04-03T19:41:53.000Z</time>
      </trkpt>
      <trkpt lat="34.043707" lon="-115.69867">
        <ele>725.000000</ele>
        <time>2021-04-03T19:41:58.000Z</time>
      </trkpt>
      <trkpt lat="34.043796" lon="-115.698674">
        <ele>725.000000</ele>
        <time>2021-04-03T19:41:59.000Z</time>
      </trkpt>
      <trkpt lat="34.043815" lon="-115.69868">
        <ele>725.398438</ele>
        <time>2021-04-03T19:42:03.000Z</time>
      </trkpt>
      <trkpt lat="34.043884" lon="-115.698717">
        <ele>725.699219</ele>
        <time>2021-04-03T19:42:04.000Z</time>
      </trkpt>
      <trkpt lat="34.043901" lon="-115.698729">
        <ele>725.699219</ele>
        <time>2021-04-03T19:42:08.000Z</time>
      </trkpt>
      <trkpt lat="34.043971" lon="-115.698786">
        <ele>725.597656</ele>
        <time>2021-04-03T19:42:09.000Z</time>
      </trkpt>
      <trkpt lat="34.043988" lon="-115.698803">
        <ele>725.500000</ele>
        <time>2021-04-03T19:42:12.000Z</time>
      </trkpt>
      <trkpt lat="34.044224" lon="-115.699084">
        <ele>725.796875</ele>
        <time>2021-04-03T19:42:24.000Z</time>
      </trkpt>
      <trkpt lat="34.044318" lon="-115.699218">
        <ele>725.597656</ele>
        <time>2021-04-03T19:42:36.000Z</time>
      </trkpt>
      <trkpt lat="34.044325" lon="-115.699231">
        <ele>726.097656</ele>
        <time>2021-04-03T19:42:41.000Z</time>
      </trkpt>
      <trkpt lat="34.044418" lon="-115.699376">
        <ele>727.597656</ele>
        <time>2021-04-03T19:42:46.000Z</time>
      </trkpt>
      <trkpt lat="34.044522" lon="-115.699551">
        <ele>730.296875</ele>
        <time>2021-04-03T19:42:56.000Z</time>
      </trkpt>
      <trkpt lat="34.044533" lon="-115.699574">
        <ele>731.097656</ele>
        <time>2021-04-03T19:43:00.000Z</time>
      </trkpt>
      <trkpt lat="34.044669" lon="-115.699866">
        <ele>732.898438</ele>
        <time>2021-04-03T19:43:12.000Z</time>
      </trkpt>
      <trkpt lat="34.044675" lon="-115.699879">
        <ele>734.097656</ele>
        <time>2021-04-03T19:43:22.000Z</time>
      </trkpt>
      <trkpt lat="34.044739" lon="-115.699947">
        <ele>734.000000</ele>
        <time>2021-04-03T19:43:23.000Z</time>
      </trkpt>
      <trkpt lat="34.044749" lon="-115.699946">
        <ele>733.699219</ele>
        <time>2021-04-03T19:45:25.000Z</time>
      </trkpt>
      <trkpt lat="34.044816" lon="-115.699883">
        <ele>733.500000</ele>
        <time>2021-04-03T19:45:26.000Z</time>
      </trkpt>
      <trkpt lat="34.044828" lon="-115.69987">
        <ele>732.699219</ele>
        <time>2021-04-03T19:45:30.000Z</time>
      </trkpt>
      <trkpt lat="34.044876" lon="-115.699801">
        <ele>732.398438</ele>
        <time>2021-04-03T19:45:32.000Z</time>
      </trkpt>
      <trkpt lat="34.044884" lon="-115.699769">
        <ele>731.097656</ele>
        <time>2021-04-03T19:45:36.000Z</time>
      </trkpt>
      <trkpt lat="34.044915" lon="-115.699686">
        <ele>730.796875</ele>
        <time>2021-04-03T19:45:37.000Z</time>
      </trkpt>
      <trkpt lat="34.044924" lon="-115.699663">
        <ele>729.597656</ele>
        <time>2021-04-03T19:45:42.000Z</time>
      </trkpt>
      <trkpt lat="34.044962" lon="-115.699593">
        <ele>728.898438</ele>
        <time>2021-04-03T19:45:45.000Z</time>
      </trkpt>
      <trkpt lat="34.044979" lon="-115.699571">
        <ele>728.500000</ele>
        <time>2021-04-03T19:45:57.000Z</time>
      </trkpt>
      <trkpt lat="34.045071" lon="-115.699466">
        <ele>730.199219</ele>
        <time>2021-04-03T19:46:05.000Z</time>
      </trkpt>
      <trkpt lat="34.045085" lon="-115.699458">
        <ele>731.199219</ele>
        <time>2021-04-03T19:46:11.000Z</time>
      </trkpt>
      <trkpt lat="34.045161" lon="-115.699489">
        <ele>731.296875</ele>
        <time>2021-04-03T19:46:12.000Z</time>
      </trkpt>
      <trkpt lat="34.04517" lon="-115.699503">
        <ele>731.500000</ele>
        <time>2021-04-03T19:46:16.000Z</time>
      </trkpt>
      <trkpt lat="34.045234" lon="-115.699607">
        <ele>731.898438</ele>
        <time>2021-04-03T19:46:18.000Z</time>
      </trkpt>
      <trkpt lat="34.045309" lon="-115.699707">
        <ele>732.500000</ele>
        <time>2021-04-03T19:46:23.000Z</time>
      </trkpt>
      <trkpt lat="34.045535" lon="-115.69997">
        <ele>732.398438</ele>
        <time>2021-04-03T19:46:36.000Z</time>
      </trkpt>
      <trkpt lat="34.045548" lon="-115.699982">
        <ele>732.597656</ele>
        <time>2021-04-03T19:46:41.000Z</time>
      </trkpt>
      <trkpt lat="34.045615" lon="-115.700027">
        <ele>732.898438</ele>
        <time>2021-04-03T19:46:42.000Z</time>
      </trkpt>
      <trkpt lat="34.045636" lon="-115.700034">
        <ele>733.597656</ele>
        <time>2021-04-03T19:46:45.000Z</time>
      </trkpt>
      <trkpt lat="34.04571" lon="-115.700037">
        <ele>733.796875</ele>
        <time>2021-04-03T19:46:46.000Z</time>
      </trkpt>
      <trkpt lat="34.045737" lon="-115.70003">
        <ele>734.199219</ele>
        <time>2021-04-03T19:46:49.000Z</time>
      </trkpt>
      <trkpt lat="34.045818" lon="-115.699994">
        <ele>734.398438</ele>
        <time>2021-04-03T19:46:50.000Z</time>
      </trkpt>
      <trkpt lat="34.045843" lon="-115.699979">
        <ele>735.000000</ele>
        <time>2021-04-03T19:46:53.000Z</time>
      </trkpt>
      <trkpt lat="34.045914" lon="-115.699921">
        <ele>735.199219</ele>
        <time>2021-04-03T19:46:54.000Z</time>
      </trkpt>
      <trkpt lat="34.045937" lon="-115.699899">
        <ele>735.796875</ele>
        <time>2021-04-03T19:46:57.000Z</time>
      </trkpt>
      <trkpt lat="34.046001" lon="-115.699826">
        <ele>736.000000</ele>
        <time>2021-04-03T19:46:58.000Z</time>
      </trkpt>
      <trkpt lat="34.046022" lon="-115.6998">
        <ele>737.097656</ele>
        <time>2021-04-03T19:47:01.000Z</time>
      </trkpt>
      <trkpt lat="34.046096" lon="-115.699755">
        <ele>737.597656</ele>
        <time>2021-04-03T19:47:02.000Z</time>
      </trkpt>
      <trkpt lat="34.046124" lon="-115.699756">
        <ele>739.296875</ele>
        <time>2021-04-03T19:47:05.000Z</time>
      </trkpt>
      <trkpt lat="34.046209" lon="-115.699782">
        <ele>739.796875</ele>
        <time>2021-04-03T19:47:06.000Z</time>
      </trkpt>
      <trkpt lat="34.046238" lon="-115.699794">
        <ele>741.097656</ele>
        <time>2021-04-03T19:47:09.000Z</time>
      </trkpt>
      <trkpt lat="34.046324" lon="-115.699818">
        <ele>741.500000</ele>
        <time>2021-04-03T19:47:10.000Z</time>
      </trkpt>
      <trkpt lat="34.046439" lon="-115.699841">
        <ele>743.097656</ele>
        <time>2021-04-03T19:47:14.000Z</time>
      </trkpt>
      <trkpt lat="34.046623" lon="-115.699883">
        <ele>745.500000</ele>
        <time>2021-04-03T19:47:23.000Z</time>
      </trkpt>
      <trkpt lat="34.046634" lon="-115.699889">
        <ele>745.097656</ele>
        <time>2021-04-03T19:47:29.000Z</time>
      </trkpt>
      <trkpt lat="34.046697" lon="-115.69995">
        <ele>743.699219</ele>
        <time>2021-04-03T19:47:50.000Z</time>
      </trkpt>
      <trkpt lat="34.04671" lon="-115.699951">
        <ele>750.000000</ele>
        <time>2021-04-03T20:14:02.000Z</time>
      </trkpt>
      <trkpt lat="34.046718" lon="-115.700062">
        <ele>749.296875</ele>
        <time>2021-04-03T20:14:03.000Z</time>
      </trkpt>
      <trkpt lat="34.04672" lon="-115.700092">
        <ele>747.699219</ele>
        <time>2021-04-03T20:14:06.000Z</time>
      </trkpt>
      <trkpt lat="34.046733" lon="-115.700171">
        <ele>747.296875</ele>
        <time>2021-04-03T20:14:08.000Z</time>
      </trkpt>
      <trkpt lat="34.046771" lon="-115.70036">
        <ele>746.199219</ele>
        <time>2021-04-03T20:14:13.000Z</time>
      </trkpt>
      <trkpt lat="34.046773" lon="-115.700388">
        <ele>745.597656</ele>
        <time>2021-04-03T20:14:16.000Z</time>
      </trkpt>
      <trkpt lat="34.046765" lon="-115.700478">
        <ele>745.296875</ele>
        <time>2021-04-03T20:14:17.000Z</time>
      </trkpt>
      <trkpt lat="34.046744" lon="-115.700632">
        <ele>744.898438</ele>
        <time>2021-04-03T20:14:23.000Z</time>
      </trkpt>
      <trkpt lat="34.046738" lon="-115.700657">
        <ele>746.000000</ele>
        <time>2021-04-03T20:14:27.000Z</time>
      </trkpt>
      <trkpt lat="34.046698" lon="-115.700753">
        <ele>746.597656</ele>
        <time>2021-04-03T20:14:28.000Z</time>
      </trkpt>
      <trkpt lat="34.04669" lon="-115.700774">
        <ele>747.398438</ele>
        <time>2021-04-03T20:14:32.000Z</time>
      </trkpt>
      <trkpt lat="34.046648" lon="-115.700853">
        <ele>747.597656</ele>
        <time>2021-04-03T20:14:33.000Z</time>
      </trkpt>
      <trkpt lat="34.046639" lon="-115.700866">
        <ele>749.000000</ele>
        <time>2021-04-03T20:14:37.000Z</time>
      </trkpt>
      <trkpt lat="34.046583" lon="-115.70095">
        <ele>749.500000</ele>
        <time>2021-04-03T20:14:38.000Z</time>
      </trkpt>
      <trkpt lat="34.046561" lon="-115.700975">
        <ele>750.296875</ele>
        <time>2021-04-03T20:14:40.000Z</time>
      </trkpt>
      <trkpt lat="34.046513" lon="-115.701027">
        <ele>750.398438</ele>
        <time>2021-04-03T20:14:41.000Z</time>
      </trkpt>
      <trkpt lat="34.046486" lon="-115.70105">
        <ele>750.796875</ele>
        <time>2021-04-03T20:14:43.000Z</time>
      </trkpt>
      <trkpt lat="34.046273" lon="-115.701197">
        <ele>751.597656</ele>
        <time>2021-04-03T20:14:48.000Z</time>
      </trkpt>
      <trkpt lat="34.046053" lon="-115.701325">
        <ele>752.296875</ele>
        <time>2021-04-03T20:14:53.000Z</time>
      </trkpt>
      <trkpt lat="34.045591" lon="-115.701553">
        <ele>754.296875</ele>
        <time>2021-04-03T20:15:07.000Z</time>
      </trkpt>
      <trkpt lat="34.04556" lon="-115.701564">
        <ele>755.398438</ele>
        <time>2021-04-03T20:15:09.000Z</time>
      </trkpt>
      <trkpt lat="34.045492" lon="-115.701562">
        <ele>755.796875</ele>
        <time>2021-04-03T20:15:10.000Z</time>
      </trkpt>
      <trkpt lat="34.045458" lon="-115.701552">
        <ele>756.898438</ele>
        <time>2021-04-03T20:15:12.000Z</time>
      </trkpt>
      <trkpt lat="34.045354" lon="-115.701512">
        <ele>757.796875</ele>
        <time>2021-04-03T20:15:14.000Z</time>
      </trkpt>
      <trkpt lat="34.045245" lon="-115.701467">
        <ele>759.097656</ele>
        <time>2021-04-03T20:15:17.000Z</time>
      </trkpt>
      <trkpt lat="34.045209" lon="-115.701458">
        <ele>760.097656</ele>
        <time>2021-04-03T20:15:19.000Z</time>
      </trkpt>
      <trkpt lat="34.045139" lon="-115.701448">
        <ele>760.199219</ele>
        <time>2021-04-03T20:15:20.000Z</time>
      </trkpt>
      <trkpt lat="34.045101" lon="-115.701446">
        <ele>760.398438</ele>
        <time>2021-04-03T20:15:22.000Z</time>
      </trkpt>
      <trkpt lat="34.044948" lon="-115.701437">
        <ele>759.796875</ele>
        <time>2021-04-03T20:15:25.000Z</time>
      </trkpt>
      <trkpt lat="34.044916" lon="-115.701423">
        <ele>759.597656</ele>
        <time>2021-04-03T20:15:27.000Z</time>
      </trkpt>
      <trkpt lat="34.044855" lon="-115.701379">
        <ele>759.699219</ele>
        <time>2021-04-03T20:15:28.000Z</time>
      </trkpt>
      <trkpt lat="34.044834" lon="-115.701348">
        <ele>760.000000</ele>
        <time>2021-04-03T20:15:30.000Z</time>
      </trkpt>
      <trkpt lat="34.044795" lon="-115.701294">
        <ele>760.500000</ele>
        <time>2021-04-03T20:15:32.000Z</time>
      </trkpt>
      <trkpt lat="34.044749" lon="-115.701284">
        <ele>759.398438</ele>
        <time>2021-04-03T20:15:36.000Z</time>
      </trkpt>
      <trkpt lat="34.044711" lon="-115.701319">
        <ele>761.398438</ele>
        <time>2021-04-03T20:40:28.000Z</time>
      </trkpt>
      <trkpt lat="34.044711" lon="-115.701319">
        <ele>761.398438</ele>
        <time>2021-04-03T20:40:28.000Z</time>
      </trkpt>
    </trkseg>
</trk>
</gpx>